<?xml version="1.0" encoding="UTF-8" standalone="no" ?>
<gpx xmlns="http://www.topografix.com/GPX/1/1" xmlns:xsi="http://www.w3.org/2001/XMLSchema-instance" xsi:schemaLocation="http://www.topografix.com/GPX/1/1 http://www.topografix.com/GPX/1/1/gpx.xsd" version="1.1" creator="VisuGPX - https://www.visugpx.com">
  <metadata>
    <name>Puivers-Carcassonne_Circuit Route</name>
    <desc><![CDATA[Ballade entre Puivers et Carcassonne 113 KM, 1000 m de dénivelé. ]]></desc>
  </metadata>
  <wpt lat="49.00243" lon="1.08928">
    <ele>120.77</ele>
    <name><![CDATA[001]]></name>
  </wpt>
  <wpt lat="49.00243" lon="1.08928">
    <ele>120.77</ele>
    <name><![CDATA[0011]]></name>
  </wpt>
  <wpt lat="43.76297" lon="6.98747">
    <ele>487.03</ele>
    <name><![CDATA[002]]></name>
  </wpt>
  <wpt lat="38.85555" lon="-94.79902">
    <ele>3.01</ele>
    <name><![CDATA[GARMIN]]></name>
  </wpt>
  <wpt lat="50.98288" lon="-1.4639">
    <ele>3.01</ele>
    <name><![CDATA[GRMEUR]]></name>
  </wpt>
  <wpt lat="25.06178" lon="121.64027">
    <ele>3.01</ele>
    <name><![CDATA[GRMTWN]]></name>
  </wpt>
  <wpt lat="43.57746" lon="1.45163">
    <ele>97.22</ele>
    <name><![CDATA[MAP]]></name>
  </wpt>
  <trk>
    <name><![CDATA[ACTIVE LOG: 17 DEC 2012 11:59]]></name>
    <trkseg>
      <trkpt lat="42.90382" lon="2.06095">
        <ele>508.19</ele>
        <time>2012-12-17T10:59:54Z</time>
      </trkpt>
      <trkpt lat="42.90382" lon="2.06085">
        <ele>508.67</ele>
        <time>2012-12-17T11:00:32Z</time>
      </trkpt>
      <trkpt lat="42.90381" lon="2.06081">
        <ele>509.64</ele>
        <time>2012-12-17T11:00:52Z</time>
      </trkpt>
      <trkpt lat="42.90387" lon="2.06069">
        <ele>510.6</ele>
        <time>2012-12-17T11:01:06Z</time>
      </trkpt>
      <trkpt lat="42.90394" lon="2.06056">
        <ele>510.6</ele>
        <time>2012-12-17T11:01:13Z</time>
      </trkpt>
      <trkpt lat="42.90405" lon="2.06059">
        <ele>511.08</ele>
        <time>2012-12-17T11:01:17Z</time>
      </trkpt>
      <trkpt lat="42.90448" lon="2.06073">
        <ele>508.67</ele>
        <time>2012-12-17T11:01:26Z</time>
      </trkpt>
      <trkpt lat="42.9048" lon="2.06072">
        <ele>505.79</ele>
        <time>2012-12-17T11:01:32Z</time>
      </trkpt>
      <trkpt lat="42.9052" lon="2.06079">
        <ele>501.46</ele>
        <time>2012-12-17T11:01:38Z</time>
      </trkpt>
      <trkpt lat="42.90543" lon="2.06086">
        <ele>499.54</ele>
        <time>2012-12-17T11:01:41Z</time>
      </trkpt>
      <trkpt lat="42.90563" lon="2.06093">
        <ele>497.62</ele>
        <time>2012-12-17T11:01:44Z</time>
      </trkpt>
      <trkpt lat="42.90606" lon="2.06107">
        <ele>495.22</ele>
        <time>2012-12-17T11:01:51Z</time>
      </trkpt>
      <trkpt lat="42.90628" lon="2.06099">
        <ele>494.74</ele>
        <time>2012-12-17T11:01:55Z</time>
      </trkpt>
      <trkpt lat="42.9065" lon="2.06071">
        <ele>494.74</ele>
        <time>2012-12-17T11:02:00Z</time>
      </trkpt>
      <trkpt lat="42.90669" lon="2.06036">
        <ele>494.74</ele>
        <time>2012-12-17T11:02:05Z</time>
      </trkpt>
      <trkpt lat="42.90683" lon="2.06018">
        <ele>494.26</ele>
        <time>2012-12-17T11:02:08Z</time>
      </trkpt>
      <trkpt lat="42.90726" lon="2.06003">
        <ele>493.29</ele>
        <time>2012-12-17T11:02:15Z</time>
      </trkpt>
      <trkpt lat="42.9081" lon="2.06051">
        <ele>494.74</ele>
        <time>2012-12-17T11:02:29Z</time>
      </trkpt>
      <trkpt lat="42.90829" lon="2.06075">
        <ele>494.74</ele>
        <time>2012-12-17T11:02:33Z</time>
      </trkpt>
      <trkpt lat="42.90907" lon="2.06173">
        <ele>494.74</ele>
        <time>2012-12-17T11:02:49Z</time>
      </trkpt>
      <trkpt lat="42.91011" lon="2.06255">
        <ele>491.85</ele>
        <time>2012-12-17T11:03:03Z</time>
      </trkpt>
      <trkpt lat="42.91145" lon="2.06337">
        <ele>489.93</ele>
        <time>2012-12-17T11:03:21Z</time>
      </trkpt>
      <trkpt lat="42.91233" lon="2.06368">
        <ele>489.93</ele>
        <time>2012-12-17T11:03:34Z</time>
      </trkpt>
      <trkpt lat="42.91369" lon="2.0633">
        <ele>488.49</ele>
        <time>2012-12-17T11:03:55Z</time>
      </trkpt>
      <trkpt lat="42.91456" lon="2.06295">
        <ele>485.6</ele>
        <time>2012-12-17T11:04:08Z</time>
      </trkpt>
      <trkpt lat="42.91553" lon="2.06272">
        <ele>482.24</ele>
        <time>2012-12-17T11:04:21Z</time>
      </trkpt>
      <trkpt lat="42.91664" lon="2.06271">
        <ele>479.84</ele>
        <time>2012-12-17T11:04:35Z</time>
      </trkpt>
      <trkpt lat="42.9172" lon="2.0628">
        <ele>478.39</ele>
        <time>2012-12-17T11:04:42Z</time>
      </trkpt>
      <trkpt lat="42.91761" lon="2.06277">
        <ele>478.39</ele>
        <time>2012-12-17T11:04:48Z</time>
      </trkpt>
      <trkpt lat="42.91782" lon="2.06298">
        <ele>478.39</ele>
        <time>2012-12-17T11:04:53Z</time>
      </trkpt>
      <trkpt lat="42.91791" lon="2.06317">
        <ele>478.87</ele>
        <time>2012-12-17T11:04:56Z</time>
      </trkpt>
      <trkpt lat="42.91828" lon="2.06332">
        <ele>479.84</ele>
        <time>2012-12-17T11:05:05Z</time>
      </trkpt>
      <trkpt lat="42.91831" lon="2.06331">
        <ele>480.32</ele>
        <time>2012-12-17T11:05:06Z</time>
      </trkpt>
      <trkpt lat="42.91857" lon="2.063">
        <ele>483.68</ele>
        <time>2012-12-17T11:05:18Z</time>
      </trkpt>
      <trkpt lat="42.91874" lon="2.06225">
        <ele>487.05</ele>
        <time>2012-12-17T11:05:37Z</time>
      </trkpt>
      <trkpt lat="42.91881" lon="2.06169">
        <ele>489.93</ele>
        <time>2012-12-17T11:05:52Z</time>
      </trkpt>
      <trkpt lat="42.91887" lon="2.06122">
        <ele>492.81</ele>
        <time>2012-12-17T11:06:05Z</time>
      </trkpt>
      <trkpt lat="42.91895" lon="2.06068">
        <ele>495.7</ele>
        <time>2012-12-17T11:06:21Z</time>
      </trkpt>
      <trkpt lat="42.91897" lon="2.06035">
        <ele>498.1</ele>
        <time>2012-12-17T11:06:35Z</time>
      </trkpt>
      <trkpt lat="42.91901" lon="2.06037">
        <ele>499.06</ele>
        <time>2012-12-17T11:06:40Z</time>
      </trkpt>
      <trkpt lat="42.91901" lon="2.0608">
        <ele>500.5</ele>
        <time>2012-12-17T11:06:55Z</time>
      </trkpt>
      <trkpt lat="42.91907" lon="2.06168">
        <ele>501.95</ele>
        <time>2012-12-17T11:07:12Z</time>
      </trkpt>
      <trkpt lat="42.91908" lon="2.06303">
        <ele>503.39</ele>
        <time>2012-12-17T11:07:35Z</time>
      </trkpt>
      <trkpt lat="42.91903" lon="2.064">
        <ele>504.35</ele>
        <time>2012-12-17T11:07:51Z</time>
      </trkpt>
      <trkpt lat="42.91896" lon="2.06527">
        <ele>505.79</ele>
        <time>2012-12-17T11:08:10Z</time>
      </trkpt>
      <trkpt lat="42.91884" lon="2.06713">
        <ele>507.23</ele>
        <time>2012-12-17T11:08:37Z</time>
      </trkpt>
      <trkpt lat="42.91863" lon="2.06969">
        <ele>509.64</ele>
        <time>2012-12-17T11:09:14Z</time>
      </trkpt>
      <trkpt lat="42.91821" lon="2.07166">
        <ele>511.56</ele>
        <time>2012-12-17T11:09:43Z</time>
      </trkpt>
      <trkpt lat="42.91767" lon="2.07377">
        <ele>512.52</ele>
        <time>2012-12-17T11:10:13Z</time>
      </trkpt>
      <trkpt lat="42.91723" lon="2.0757">
        <ele>514.92</ele>
        <time>2012-12-17T11:10:41Z</time>
      </trkpt>
      <trkpt lat="42.91679" lon="2.07751">
        <ele>516.85</ele>
        <time>2012-12-17T11:11:09Z</time>
      </trkpt>
      <trkpt lat="42.9164" lon="2.07899">
        <ele>517.33</ele>
        <time>2012-12-17T11:11:31Z</time>
      </trkpt>
      <trkpt lat="42.9159" lon="2.08018">
        <ele>519.25</ele>
        <time>2012-12-17T11:11:51Z</time>
      </trkpt>
      <trkpt lat="42.91535" lon="2.08158">
        <ele>520.21</ele>
        <time>2012-12-17T11:12:14Z</time>
      </trkpt>
      <trkpt lat="42.91502" lon="2.08255">
        <ele>521.65</ele>
        <time>2012-12-17T11:12:29Z</time>
      </trkpt>
      <trkpt lat="42.91453" lon="2.08406">
        <ele>523.58</ele>
        <time>2012-12-17T11:12:51Z</time>
      </trkpt>
      <trkpt lat="42.91448" lon="2.08418">
        <ele>523.58</ele>
        <time>2012-12-17T11:12:53Z</time>
      </trkpt>
      <trkpt lat="42.91402" lon="2.0851">
        <ele>524.54</ele>
        <time>2012-12-17T11:13:08Z</time>
      </trkpt>
      <trkpt lat="42.9135" lon="2.08633">
        <ele>526.46</ele>
        <time>2012-12-17T11:13:28Z</time>
      </trkpt>
      <trkpt lat="42.91328" lon="2.08754">
        <ele>527.42</ele>
        <time>2012-12-17T11:13:45Z</time>
      </trkpt>
      <trkpt lat="42.91325" lon="2.08775">
        <ele>527.42</ele>
        <time>2012-12-17T11:13:48Z</time>
      </trkpt>
      <trkpt lat="42.91303" lon="2.089">
        <ele>528.86</ele>
        <time>2012-12-17T11:14:05Z</time>
      </trkpt>
      <trkpt lat="42.9126" lon="2.09015">
        <ele>529.34</ele>
        <time>2012-12-17T11:14:22Z</time>
      </trkpt>
      <trkpt lat="42.91194" lon="2.09111">
        <ele>531.27</ele>
        <time>2012-12-17T11:14:39Z</time>
      </trkpt>
      <trkpt lat="42.91107" lon="2.09232">
        <ele>532.71</ele>
        <time>2012-12-17T11:15:03Z</time>
      </trkpt>
      <trkpt lat="42.91053" lon="2.09303">
        <ele>533.19</ele>
        <time>2012-12-17T11:15:17Z</time>
      </trkpt>
      <trkpt lat="42.91035" lon="2.09316">
        <ele>533.67</ele>
        <time>2012-12-17T11:15:21Z</time>
      </trkpt>
      <trkpt lat="42.90967" lon="2.09346">
        <ele>535.11</ele>
        <time>2012-12-17T11:15:34Z</time>
      </trkpt>
      <trkpt lat="42.90855" lon="2.09426">
        <ele>536.07</ele>
        <time>2012-12-17T11:15:56Z</time>
      </trkpt>
      <trkpt lat="42.90741" lon="2.09514">
        <ele>537.51</ele>
        <time>2012-12-17T11:16:19Z</time>
      </trkpt>
      <trkpt lat="42.90716" lon="2.09531">
        <ele>538.48</ele>
        <time>2012-12-17T11:16:24Z</time>
      </trkpt>
      <trkpt lat="42.90676" lon="2.09566">
        <ele>538.96</ele>
        <time>2012-12-17T11:16:33Z</time>
      </trkpt>
      <trkpt lat="42.90658" lon="2.0958">
        <ele>539.44</ele>
        <time>2012-12-17T11:16:37Z</time>
      </trkpt>
      <trkpt lat="42.90626" lon="2.09602">
        <ele>539.44</ele>
        <time>2012-12-17T11:16:43Z</time>
      </trkpt>
      <trkpt lat="42.906" lon="2.09631">
        <ele>540.4</ele>
        <time>2012-12-17T11:16:49Z</time>
      </trkpt>
      <trkpt lat="42.90547" lon="2.09719">
        <ele>541.36</ele>
        <time>2012-12-17T11:17:04Z</time>
      </trkpt>
      <trkpt lat="42.90516" lon="2.09778">
        <ele>541.36</ele>
        <time>2012-12-17T11:17:13Z</time>
      </trkpt>
      <trkpt lat="42.90472" lon="2.09812">
        <ele>542.8</ele>
        <time>2012-12-17T11:17:22Z</time>
      </trkpt>
      <trkpt lat="42.90391" lon="2.09859">
        <ele>543.76</ele>
        <time>2012-12-17T11:17:38Z</time>
      </trkpt>
      <trkpt lat="42.90333" lon="2.09933">
        <ele>543.28</ele>
        <time>2012-12-17T11:17:52Z</time>
      </trkpt>
      <trkpt lat="42.90257" lon="2.10067">
        <ele>544.24</ele>
        <time>2012-12-17T11:18:13Z</time>
      </trkpt>
      <trkpt lat="42.90163" lon="2.10127">
        <ele>545.69</ele>
        <time>2012-12-17T11:18:31Z</time>
      </trkpt>
      <trkpt lat="42.90093" lon="2.10217">
        <ele>547.61</ele>
        <time>2012-12-17T11:18:48Z</time>
      </trkpt>
      <trkpt lat="42.90023" lon="2.10334">
        <ele>549.53</ele>
        <time>2012-12-17T11:19:08Z</time>
      </trkpt>
      <trkpt lat="42.90018" lon="2.10347">
        <ele>549.53</ele>
        <time>2012-12-17T11:19:10Z</time>
      </trkpt>
      <trkpt lat="42.89975" lon="2.10534">
        <ele>550.97</ele>
        <time>2012-12-17T11:19:35Z</time>
      </trkpt>
      <trkpt lat="42.89964" lon="2.1061">
        <ele>551.93</ele>
        <time>2012-12-17T11:19:45Z</time>
      </trkpt>
      <trkpt lat="42.89957" lon="2.10794">
        <ele>554.34</ele>
        <time>2012-12-17T11:20:09Z</time>
      </trkpt>
      <trkpt lat="42.8993" lon="2.1091">
        <ele>554.34</ele>
        <time>2012-12-17T11:20:25Z</time>
      </trkpt>
      <trkpt lat="42.8992" lon="2.10928">
        <ele>553.86</ele>
        <time>2012-12-17T11:20:28Z</time>
      </trkpt>
      <trkpt lat="42.89903" lon="2.10947">
        <ele>554.34</ele>
        <time>2012-12-17T11:20:32Z</time>
      </trkpt>
      <trkpt lat="42.89814" lon="2.10979">
        <ele>556.26</ele>
        <time>2012-12-17T11:20:49Z</time>
      </trkpt>
      <trkpt lat="42.89675" lon="2.11026">
        <ele>559.14</ele>
        <time>2012-12-17T11:21:16Z</time>
      </trkpt>
      <trkpt lat="42.89616" lon="2.1112">
        <ele>561.55</ele>
        <time>2012-12-17T11:21:33Z</time>
      </trkpt>
      <trkpt lat="42.89561" lon="2.1126">
        <ele>563.47</ele>
        <time>2012-12-17T11:21:55Z</time>
      </trkpt>
      <trkpt lat="42.89497" lon="2.11381">
        <ele>564.91</ele>
        <time>2012-12-17T11:22:14Z</time>
      </trkpt>
      <trkpt lat="42.89406" lon="2.11553">
        <ele>565.87</ele>
        <time>2012-12-17T11:22:39Z</time>
      </trkpt>
      <trkpt lat="42.89341" lon="2.11673">
        <ele>565.39</ele>
        <time>2012-12-17T11:22:56Z</time>
      </trkpt>
      <trkpt lat="42.89237" lon="2.11867">
        <ele>563.47</ele>
        <time>2012-12-17T11:23:20Z</time>
      </trkpt>
      <trkpt lat="42.89105" lon="2.12113">
        <ele>561.55</ele>
        <time>2012-12-17T11:23:46Z</time>
      </trkpt>
      <trkpt lat="42.88932" lon="2.12435">
        <ele>559.62</ele>
        <time>2012-12-17T11:24:19Z</time>
      </trkpt>
      <trkpt lat="42.88735" lon="2.12805">
        <ele>559.62</ele>
        <time>2012-12-17T11:24:57Z</time>
      </trkpt>
      <trkpt lat="42.88596" lon="2.13065">
        <ele>561.55</ele>
        <time>2012-12-17T11:25:28Z</time>
      </trkpt>
      <trkpt lat="42.88534" lon="2.13178">
        <ele>564.43</ele>
        <time>2012-12-17T11:25:46Z</time>
      </trkpt>
      <trkpt lat="42.88493" lon="2.13254">
        <ele>567.8</ele>
        <time>2012-12-17T11:26:03Z</time>
      </trkpt>
      <trkpt lat="42.88466" lon="2.13308">
        <ele>570.68</ele>
        <time>2012-12-17T11:26:17Z</time>
      </trkpt>
      <trkpt lat="42.88483" lon="2.13306">
        <ele>571.16</ele>
        <time>2012-12-17T11:26:22Z</time>
      </trkpt>
      <trkpt lat="42.88562" lon="2.13364">
        <ele>569.72</ele>
        <time>2012-12-17T11:26:41Z</time>
      </trkpt>
      <trkpt lat="42.88618" lon="2.13406">
        <ele>569.24</ele>
        <time>2012-12-17T11:26:53Z</time>
      </trkpt>
      <trkpt lat="42.88718" lon="2.13451">
        <ele>568.28</ele>
        <time>2012-12-17T11:27:12Z</time>
      </trkpt>
      <trkpt lat="42.88827" lon="2.13533">
        <ele>564.91</ele>
        <time>2012-12-17T11:27:31Z</time>
      </trkpt>
      <trkpt lat="42.88896" lon="2.1356">
        <ele>562.03</ele>
        <time>2012-12-17T11:27:41Z</time>
      </trkpt>
      <trkpt lat="42.88918" lon="2.13566">
        <ele>561.07</ele>
        <time>2012-12-17T11:27:44Z</time>
      </trkpt>
      <trkpt lat="42.8895" lon="2.13622">
        <ele>558.18</ele>
        <time>2012-12-17T11:27:52Z</time>
      </trkpt>
      <trkpt lat="42.8894" lon="2.13659">
        <ele>556.26</ele>
        <time>2012-12-17T11:27:57Z</time>
      </trkpt>
      <trkpt lat="42.88932" lon="2.13672">
        <ele>555.78</ele>
        <time>2012-12-17T11:27:59Z</time>
      </trkpt>
      <trkpt lat="42.8891" lon="2.13693">
        <ele>554.82</ele>
        <time>2012-12-17T11:28:03Z</time>
      </trkpt>
      <trkpt lat="42.88852" lon="2.13727">
        <ele>551.93</ele>
        <time>2012-12-17T11:28:12Z</time>
      </trkpt>
      <trkpt lat="42.88826" lon="2.13734">
        <ele>550.01</ele>
        <time>2012-12-17T11:28:16Z</time>
      </trkpt>
      <trkpt lat="42.88785" lon="2.13736">
        <ele>546.65</ele>
        <time>2012-12-17T11:28:22Z</time>
      </trkpt>
      <trkpt lat="42.88733" lon="2.13742">
        <ele>543.76</ele>
        <time>2012-12-17T11:28:31Z</time>
      </trkpt>
      <trkpt lat="42.88721" lon="2.13742">
        <ele>543.28</ele>
        <time>2012-12-17T11:28:33Z</time>
      </trkpt>
      <trkpt lat="42.88707" lon="2.13778">
        <ele>541.84</ele>
        <time>2012-12-17T11:28:39Z</time>
      </trkpt>
      <trkpt lat="42.88724" lon="2.13784">
        <ele>539.92</ele>
        <time>2012-12-17T11:28:42Z</time>
      </trkpt>
      <trkpt lat="42.88743" lon="2.1378">
        <ele>538.96</ele>
        <time>2012-12-17T11:28:45Z</time>
      </trkpt>
      <trkpt lat="42.88814" lon="2.13787">
        <ele>535.59</ele>
        <time>2012-12-17T11:28:55Z</time>
      </trkpt>
      <trkpt lat="42.88856" lon="2.13795">
        <ele>533.19</ele>
        <time>2012-12-17T11:29:01Z</time>
      </trkpt>
      <trkpt lat="42.88897" lon="2.13781">
        <ele>531.27</ele>
        <time>2012-12-17T11:29:07Z</time>
      </trkpt>
      <trkpt lat="42.8892" lon="2.13793">
        <ele>529.34</ele>
        <time>2012-12-17T11:29:16Z</time>
      </trkpt>
      <trkpt lat="42.88906" lon="2.13803">
        <ele>528.38</ele>
        <time>2012-12-17T11:29:20Z</time>
      </trkpt>
      <trkpt lat="42.88856" lon="2.13822">
        <ele>525.02</ele>
        <time>2012-12-17T11:29:30Z</time>
      </trkpt>
      <trkpt lat="42.88779" lon="2.13839">
        <ele>521.65</ele>
        <time>2012-12-17T11:29:42Z</time>
      </trkpt>
      <trkpt lat="42.88697" lon="2.13865">
        <ele>518.29</ele>
        <time>2012-12-17T11:29:53Z</time>
      </trkpt>
      <trkpt lat="42.88683" lon="2.1387">
        <ele>517.33</ele>
        <time>2012-12-17T11:29:55Z</time>
      </trkpt>
      <trkpt lat="42.88652" lon="2.13883">
        <ele>515.4</ele>
        <time>2012-12-17T11:29:59Z</time>
      </trkpt>
      <trkpt lat="42.88593" lon="2.13903">
        <ele>511.56</ele>
        <time>2012-12-17T11:30:07Z</time>
      </trkpt>
      <trkpt lat="42.88541" lon="2.1389">
        <ele>508.19</ele>
        <time>2012-12-17T11:30:14Z</time>
      </trkpt>
      <trkpt lat="42.88508" lon="2.13871">
        <ele>504.83</ele>
        <time>2012-12-17T11:30:19Z</time>
      </trkpt>
      <trkpt lat="42.88461" lon="2.13841">
        <ele>500.98</ele>
        <time>2012-12-17T11:30:26Z</time>
      </trkpt>
      <trkpt lat="42.88448" lon="2.13834">
        <ele>500.02</ele>
        <time>2012-12-17T11:30:28Z</time>
      </trkpt>
      <trkpt lat="42.88415" lon="2.13837">
        <ele>498.58</ele>
        <time>2012-12-17T11:30:33Z</time>
      </trkpt>
      <trkpt lat="42.88365" lon="2.13873">
        <ele>496.66</ele>
        <time>2012-12-17T11:30:41Z</time>
      </trkpt>
      <trkpt lat="42.88351" lon="2.13894">
        <ele>495.22</ele>
        <time>2012-12-17T11:30:44Z</time>
      </trkpt>
      <trkpt lat="42.88347" lon="2.13922">
        <ele>493.77</ele>
        <time>2012-12-17T11:30:47Z</time>
      </trkpt>
      <trkpt lat="42.88348" lon="2.13954">
        <ele>491.85</ele>
        <time>2012-12-17T11:30:50Z</time>
      </trkpt>
      <trkpt lat="42.88349" lon="2.14021">
        <ele>488.49</ele>
        <time>2012-12-17T11:30:56Z</time>
      </trkpt>
      <trkpt lat="42.88347" lon="2.14106">
        <ele>485.6</ele>
        <time>2012-12-17T11:31:03Z</time>
      </trkpt>
      <trkpt lat="42.88347" lon="2.1413">
        <ele>484.64</ele>
        <time>2012-12-17T11:31:05Z</time>
      </trkpt>
      <trkpt lat="42.88358" lon="2.14173">
        <ele>482.72</ele>
        <time>2012-12-17T11:31:09Z</time>
      </trkpt>
      <trkpt lat="42.88396" lon="2.14244">
        <ele>478.87</ele>
        <time>2012-12-17T11:31:16Z</time>
      </trkpt>
      <trkpt lat="42.88408" lon="2.14263">
        <ele>477.43</ele>
        <time>2012-12-17T11:31:18Z</time>
      </trkpt>
      <trkpt lat="42.88456" lon="2.143">
        <ele>475.03</ele>
        <time>2012-12-17T11:31:24Z</time>
      </trkpt>
      <trkpt lat="42.88514" lon="2.14324">
        <ele>472.14</ele>
        <time>2012-12-17T11:31:31Z</time>
      </trkpt>
      <trkpt lat="42.88546" lon="2.14335">
        <ele>468.78</ele>
        <time>2012-12-17T11:31:35Z</time>
      </trkpt>
      <trkpt lat="42.88554" lon="2.14338">
        <ele>468.3</ele>
        <time>2012-12-17T11:31:36Z</time>
      </trkpt>
      <trkpt lat="42.88609" lon="2.14359">
        <ele>467.82</ele>
        <time>2012-12-17T11:31:43Z</time>
      </trkpt>
      <trkpt lat="42.88636" lon="2.14384">
        <ele>464.93</ele>
        <time>2012-12-17T11:31:47Z</time>
      </trkpt>
      <trkpt lat="42.88668" lon="2.14436">
        <ele>461.57</ele>
        <time>2012-12-17T11:31:53Z</time>
      </trkpt>
      <trkpt lat="42.88678" lon="2.14453">
        <ele>460.61</ele>
        <time>2012-12-17T11:31:55Z</time>
      </trkpt>
      <trkpt lat="42.88687" lon="2.14481">
        <ele>459.17</ele>
        <time>2012-12-17T11:31:58Z</time>
      </trkpt>
      <trkpt lat="42.88673" lon="2.14527">
        <ele>456.28</ele>
        <time>2012-12-17T11:32:03Z</time>
      </trkpt>
      <trkpt lat="42.88655" lon="2.14552">
        <ele>454.36</ele>
        <time>2012-12-17T11:32:07Z</time>
      </trkpt>
      <trkpt lat="42.88643" lon="2.14567">
        <ele>453.4</ele>
        <time>2012-12-17T11:32:10Z</time>
      </trkpt>
      <trkpt lat="42.88594" lon="2.14639">
        <ele>450.03</ele>
        <time>2012-12-17T11:32:21Z</time>
      </trkpt>
      <trkpt lat="42.88588" lon="2.14685">
        <ele>447.63</ele>
        <time>2012-12-17T11:32:26Z</time>
      </trkpt>
      <trkpt lat="42.88594" lon="2.14703">
        <ele>447.15</ele>
        <time>2012-12-17T11:32:28Z</time>
      </trkpt>
      <trkpt lat="42.88586" lon="2.14747">
        <ele>443.31</ele>
        <time>2012-12-17T11:32:34Z</time>
      </trkpt>
      <trkpt lat="42.8857" lon="2.1476">
        <ele>442.34</ele>
        <time>2012-12-17T11:32:37Z</time>
      </trkpt>
      <trkpt lat="42.88526" lon="2.14792">
        <ele>439.94</ele>
        <time>2012-12-17T11:32:44Z</time>
      </trkpt>
      <trkpt lat="42.88512" lon="2.14809">
        <ele>439.46</ele>
        <time>2012-12-17T11:32:47Z</time>
      </trkpt>
      <trkpt lat="42.8852" lon="2.14844">
        <ele>437.06</ele>
        <time>2012-12-17T11:32:52Z</time>
      </trkpt>
      <trkpt lat="42.88557" lon="2.14905">
        <ele>433.21</ele>
        <time>2012-12-17T11:33:00Z</time>
      </trkpt>
      <trkpt lat="42.88569" lon="2.14932">
        <ele>431.77</ele>
        <time>2012-12-17T11:33:03Z</time>
      </trkpt>
      <trkpt lat="42.88578" lon="2.14963">
        <ele>430.33</ele>
        <time>2012-12-17T11:33:06Z</time>
      </trkpt>
      <trkpt lat="42.88588" lon="2.1504">
        <ele>426.96</ele>
        <time>2012-12-17T11:33:13Z</time>
      </trkpt>
      <trkpt lat="42.8859" lon="2.15051">
        <ele>426.48</ele>
        <time>2012-12-17T11:33:14Z</time>
      </trkpt>
      <trkpt lat="42.88615" lon="2.15128">
        <ele>423.6</ele>
        <time>2012-12-17T11:33:21Z</time>
      </trkpt>
      <trkpt lat="42.88648" lon="2.15161">
        <ele>421.68</ele>
        <time>2012-12-17T11:33:26Z</time>
      </trkpt>
      <trkpt lat="42.88709" lon="2.15183">
        <ele>417.83</ele>
        <time>2012-12-17T11:33:33Z</time>
      </trkpt>
      <trkpt lat="42.88751" lon="2.15202">
        <ele>414.95</ele>
        <time>2012-12-17T11:33:38Z</time>
      </trkpt>
      <trkpt lat="42.88781" lon="2.15225">
        <ele>413.02</ele>
        <time>2012-12-17T11:33:42Z</time>
      </trkpt>
      <trkpt lat="42.88801" lon="2.15245">
        <ele>412.06</ele>
        <time>2012-12-17T11:33:45Z</time>
      </trkpt>
      <trkpt lat="42.8883" lon="2.15295">
        <ele>408.7</ele>
        <time>2012-12-17T11:33:51Z</time>
      </trkpt>
      <trkpt lat="42.88838" lon="2.15321">
        <ele>408.7</ele>
        <time>2012-12-17T11:33:54Z</time>
      </trkpt>
      <trkpt lat="42.88871" lon="2.15353">
        <ele>405.81</ele>
        <time>2012-12-17T11:34:00Z</time>
      </trkpt>
      <trkpt lat="42.88927" lon="2.1537">
        <ele>401.97</ele>
        <time>2012-12-17T11:34:08Z</time>
      </trkpt>
      <trkpt lat="42.88972" lon="2.15363">
        <ele>399.57</ele>
        <time>2012-12-17T11:34:14Z</time>
      </trkpt>
      <trkpt lat="42.89019" lon="2.15323">
        <ele>397.16</ele>
        <time>2012-12-17T11:34:21Z</time>
      </trkpt>
      <trkpt lat="42.89054" lon="2.15322">
        <ele>395.24</ele>
        <time>2012-12-17T11:34:27Z</time>
      </trkpt>
      <trkpt lat="42.89106" lon="2.15358">
        <ele>391.87</ele>
        <time>2012-12-17T11:34:38Z</time>
      </trkpt>
      <trkpt lat="42.89118" lon="2.15377">
        <ele>391.39</ele>
        <time>2012-12-17T11:34:42Z</time>
      </trkpt>
      <trkpt lat="42.89136" lon="2.15402">
        <ele>392.36</ele>
        <time>2012-12-17T11:34:48Z</time>
      </trkpt>
      <trkpt lat="42.89151" lon="2.15415">
        <ele>392.36</ele>
        <time>2012-12-17T11:34:52Z</time>
      </trkpt>
      <trkpt lat="42.89171" lon="2.15426">
        <ele>392.36</ele>
        <time>2012-12-17T11:34:56Z</time>
      </trkpt>
      <trkpt lat="42.89181" lon="2.1543">
        <ele>391.87</ele>
        <time>2012-12-17T11:34:58Z</time>
      </trkpt>
      <trkpt lat="42.89206" lon="2.15432">
        <ele>390.43</ele>
        <time>2012-12-17T11:35:02Z</time>
      </trkpt>
      <trkpt lat="42.89218" lon="2.15431">
        <ele>390.43</ele>
        <time>2012-12-17T11:35:04Z</time>
      </trkpt>
      <trkpt lat="42.89247" lon="2.15467">
        <ele>387.55</ele>
        <time>2012-12-17T11:35:11Z</time>
      </trkpt>
      <trkpt lat="42.89256" lon="2.15504">
        <ele>386.11</ele>
        <time>2012-12-17T11:35:15Z</time>
      </trkpt>
      <trkpt lat="42.89281" lon="2.15557">
        <ele>382.26</ele>
        <time>2012-12-17T11:35:21Z</time>
      </trkpt>
      <trkpt lat="42.89287" lon="2.15565">
        <ele>382.26</ele>
        <time>2012-12-17T11:35:22Z</time>
      </trkpt>
      <trkpt lat="42.89297" lon="2.15583">
        <ele>380.82</ele>
        <time>2012-12-17T11:35:24Z</time>
      </trkpt>
      <trkpt lat="42.89345" lon="2.15631">
        <ele>376.49</ele>
        <time>2012-12-17T11:35:31Z</time>
      </trkpt>
      <trkpt lat="42.89366" lon="2.15648">
        <ele>375.53</ele>
        <time>2012-12-17T11:35:34Z</time>
      </trkpt>
      <trkpt lat="42.89392" lon="2.157">
        <ele>372.17</ele>
        <time>2012-12-17T11:35:40Z</time>
      </trkpt>
      <trkpt lat="42.89395" lon="2.15722">
        <ele>371.69</ele>
        <time>2012-12-17T11:35:42Z</time>
      </trkpt>
      <trkpt lat="42.89419" lon="2.15764">
        <ele>368.32</ele>
        <time>2012-12-17T11:35:47Z</time>
      </trkpt>
      <trkpt lat="42.89448" lon="2.15787">
        <ele>366.4</ele>
        <time>2012-12-17T11:35:51Z</time>
      </trkpt>
      <trkpt lat="42.89499" lon="2.15823">
        <ele>362.55</ele>
        <time>2012-12-17T11:35:58Z</time>
      </trkpt>
      <trkpt lat="42.8952" lon="2.15837">
        <ele>361.11</ele>
        <time>2012-12-17T11:36:01Z</time>
      </trkpt>
      <trkpt lat="42.89527" lon="2.1584">
        <ele>360.63</ele>
        <time>2012-12-17T11:36:02Z</time>
      </trkpt>
      <trkpt lat="42.89571" lon="2.15833">
        <ele>356.79</ele>
        <time>2012-12-17T11:36:08Z</time>
      </trkpt>
      <trkpt lat="42.89599" lon="2.15814">
        <ele>355.34</ele>
        <time>2012-12-17T11:36:12Z</time>
      </trkpt>
      <trkpt lat="42.89642" lon="2.15812">
        <ele>351.5</ele>
        <time>2012-12-17T11:36:18Z</time>
      </trkpt>
      <trkpt lat="42.89657" lon="2.1582">
        <ele>350.06</ele>
        <time>2012-12-17T11:36:20Z</time>
      </trkpt>
      <trkpt lat="42.897" lon="2.15866">
        <ele>346.69</ele>
        <time>2012-12-17T11:36:27Z</time>
      </trkpt>
      <trkpt lat="42.89713" lon="2.15878">
        <ele>345.73</ele>
        <time>2012-12-17T11:36:29Z</time>
      </trkpt>
      <trkpt lat="42.89769" lon="2.15871">
        <ele>342.85</ele>
        <time>2012-12-17T11:36:37Z</time>
      </trkpt>
      <trkpt lat="42.89803" lon="2.15871">
        <ele>339.96</ele>
        <time>2012-12-17T11:36:43Z</time>
      </trkpt>
      <trkpt lat="42.89825" lon="2.15889">
        <ele>338.04</ele>
        <time>2012-12-17T11:36:47Z</time>
      </trkpt>
      <trkpt lat="42.89859" lon="2.15878">
        <ele>336.6</ele>
        <time>2012-12-17T11:36:52Z</time>
      </trkpt>
      <trkpt lat="42.89877" lon="2.15863">
        <ele>335.16</ele>
        <time>2012-12-17T11:36:55Z</time>
      </trkpt>
      <trkpt lat="42.89907" lon="2.15879">
        <ele>332.75</ele>
        <time>2012-12-17T11:37:02Z</time>
      </trkpt>
      <trkpt lat="42.89901" lon="2.15897">
        <ele>331.79</ele>
        <time>2012-12-17T11:37:05Z</time>
      </trkpt>
      <trkpt lat="42.89814" lon="2.15987">
        <ele>328.43</ele>
        <time>2012-12-17T11:37:22Z</time>
      </trkpt>
      <trkpt lat="42.89809" lon="2.15993">
        <ele>328.43</ele>
        <time>2012-12-17T11:37:23Z</time>
      </trkpt>
      <trkpt lat="42.89789" lon="2.16039">
        <ele>327.95</ele>
        <time>2012-12-17T11:37:29Z</time>
      </trkpt>
      <trkpt lat="42.89783" lon="2.16068">
        <ele>326.99</ele>
        <time>2012-12-17T11:37:32Z</time>
      </trkpt>
      <trkpt lat="42.89782" lon="2.16117">
        <ele>326.02</ele>
        <time>2012-12-17T11:37:37Z</time>
      </trkpt>
      <trkpt lat="42.89816" lon="2.16245">
        <ele>323.14</ele>
        <time>2012-12-17T11:37:51Z</time>
      </trkpt>
      <trkpt lat="42.89828" lon="2.16306">
        <ele>322.18</ele>
        <time>2012-12-17T11:37:58Z</time>
      </trkpt>
      <trkpt lat="42.89819" lon="2.16372">
        <ele>321.7</ele>
        <time>2012-12-17T11:38:05Z</time>
      </trkpt>
      <trkpt lat="42.89835" lon="2.1647">
        <ele>320.26</ele>
        <time>2012-12-17T11:38:15Z</time>
      </trkpt>
      <trkpt lat="42.8984" lon="2.16528">
        <ele>320.26</ele>
        <time>2012-12-17T11:38:21Z</time>
      </trkpt>
      <trkpt lat="42.89848" lon="2.16563">
        <ele>319.3</ele>
        <time>2012-12-17T11:38:25Z</time>
      </trkpt>
      <trkpt lat="42.89863" lon="2.16593">
        <ele>318.81</ele>
        <time>2012-12-17T11:38:29Z</time>
      </trkpt>
      <trkpt lat="42.89872" lon="2.16607">
        <ele>318.33</ele>
        <time>2012-12-17T11:38:31Z</time>
      </trkpt>
      <trkpt lat="42.899" lon="2.16632">
        <ele>317.85</ele>
        <time>2012-12-17T11:38:36Z</time>
      </trkpt>
      <trkpt lat="42.89927" lon="2.16674">
        <ele>317.37</ele>
        <time>2012-12-17T11:38:42Z</time>
      </trkpt>
      <trkpt lat="42.89964" lon="2.16712">
        <ele>315.93</ele>
        <time>2012-12-17T11:38:49Z</time>
      </trkpt>
      <trkpt lat="42.89975" lon="2.16733">
        <ele>315.93</ele>
        <time>2012-12-17T11:38:52Z</time>
      </trkpt>
      <trkpt lat="42.89983" lon="2.16776">
        <ele>315.45</ele>
        <time>2012-12-17T11:38:57Z</time>
      </trkpt>
      <trkpt lat="42.89982" lon="2.16821">
        <ele>314.97</ele>
        <time>2012-12-17T11:39:02Z</time>
      </trkpt>
      <trkpt lat="42.90011" lon="2.1688">
        <ele>313.53</ele>
        <time>2012-12-17T11:39:10Z</time>
      </trkpt>
      <trkpt lat="42.90064" lon="2.16942">
        <ele>316.41</ele>
        <time>2012-12-17T11:39:24Z</time>
      </trkpt>
      <trkpt lat="42.90095" lon="2.17004">
        <ele>313.53</ele>
        <time>2012-12-17T11:39:33Z</time>
      </trkpt>
      <trkpt lat="42.90128" lon="2.17037">
        <ele>309.68</ele>
        <time>2012-12-17T11:39:39Z</time>
      </trkpt>
      <trkpt lat="42.90135" lon="2.17038">
        <ele>308.72</ele>
        <time>2012-12-17T11:39:40Z</time>
      </trkpt>
      <trkpt lat="42.90201" lon="2.17047">
        <ele>305.84</ele>
        <time>2012-12-17T11:39:49Z</time>
      </trkpt>
      <trkpt lat="42.90229" lon="2.17076">
        <ele>305.36</ele>
        <time>2012-12-17T11:39:54Z</time>
      </trkpt>
      <trkpt lat="42.90277" lon="2.17185">
        <ele>301.99</ele>
        <time>2012-12-17T11:40:06Z</time>
      </trkpt>
      <trkpt lat="42.9033" lon="2.17304">
        <ele>299.11</ele>
        <time>2012-12-17T11:40:19Z</time>
      </trkpt>
      <trkpt lat="42.90401" lon="2.17458">
        <ele>295.74</ele>
        <time>2012-12-17T11:40:35Z</time>
      </trkpt>
      <trkpt lat="42.90446" lon="2.17573">
        <ele>292.38</ele>
        <time>2012-12-17T11:40:46Z</time>
      </trkpt>
      <trkpt lat="42.90473" lon="2.17673">
        <ele>290.94</ele>
        <time>2012-12-17T11:40:55Z</time>
      </trkpt>
      <trkpt lat="42.90474" lon="2.17753">
        <ele>289.97</ele>
        <time>2012-12-17T11:41:02Z</time>
      </trkpt>
      <trkpt lat="42.90484" lon="2.17805">
        <ele>288.53</ele>
        <time>2012-12-17T11:41:07Z</time>
      </trkpt>
      <trkpt lat="42.90542" lon="2.17946">
        <ele>286.13</ele>
        <time>2012-12-17T11:41:21Z</time>
      </trkpt>
      <trkpt lat="42.90577" lon="2.18081">
        <ele>283.25</ele>
        <time>2012-12-17T11:41:33Z</time>
      </trkpt>
      <trkpt lat="42.90589" lon="2.18127">
        <ele>282.28</ele>
        <time>2012-12-17T11:41:37Z</time>
      </trkpt>
      <trkpt lat="42.90583" lon="2.18203">
        <ele>280.36</ele>
        <time>2012-12-17T11:41:44Z</time>
      </trkpt>
      <trkpt lat="42.90581" lon="2.18286">
        <ele>279.4</ele>
        <time>2012-12-17T11:41:52Z</time>
      </trkpt>
      <trkpt lat="42.90595" lon="2.18312">
        <ele>278.44</ele>
        <time>2012-12-17T11:41:55Z</time>
      </trkpt>
      <trkpt lat="42.90613" lon="2.18334">
        <ele>277.96</ele>
        <time>2012-12-17T11:41:58Z</time>
      </trkpt>
      <trkpt lat="42.90637" lon="2.18393">
        <ele>276.04</ele>
        <time>2012-12-17T11:42:04Z</time>
      </trkpt>
      <trkpt lat="42.90652" lon="2.18469">
        <ele>275.07</ele>
        <time>2012-12-17T11:42:11Z</time>
      </trkpt>
      <trkpt lat="42.90666" lon="2.18509">
        <ele>274.11</ele>
        <time>2012-12-17T11:42:15Z</time>
      </trkpt>
      <trkpt lat="42.90684" lon="2.18623">
        <ele>271.71</ele>
        <time>2012-12-17T11:42:26Z</time>
      </trkpt>
      <trkpt lat="42.90689" lon="2.18644">
        <ele>271.71</ele>
        <time>2012-12-17T11:42:28Z</time>
      </trkpt>
      <trkpt lat="42.90706" lon="2.18682">
        <ele>271.23</ele>
        <time>2012-12-17T11:42:32Z</time>
      </trkpt>
      <trkpt lat="42.90729" lon="2.18722">
        <ele>270.75</ele>
        <time>2012-12-17T11:42:37Z</time>
      </trkpt>
      <trkpt lat="42.90735" lon="2.18758">
        <ele>269.79</ele>
        <time>2012-12-17T11:42:41Z</time>
      </trkpt>
      <trkpt lat="42.90735" lon="2.18776">
        <ele>268.83</ele>
        <time>2012-12-17T11:42:43Z</time>
      </trkpt>
      <trkpt lat="42.9072" lon="2.18829">
        <ele>267.86</ele>
        <time>2012-12-17T11:42:50Z</time>
      </trkpt>
      <trkpt lat="42.90725" lon="2.1887">
        <ele>267.38</ele>
        <time>2012-12-17T11:42:56Z</time>
      </trkpt>
      <trkpt lat="42.90797" lon="2.19036">
        <ele>264.02</ele>
        <time>2012-12-17T11:43:15Z</time>
      </trkpt>
      <trkpt lat="42.9085" lon="2.19172">
        <ele>262.58</ele>
        <time>2012-12-17T11:43:30Z</time>
      </trkpt>
      <trkpt lat="42.90913" lon="2.19312">
        <ele>261.14</ele>
        <time>2012-12-17T11:43:47Z</time>
      </trkpt>
      <trkpt lat="42.91003" lon="2.19382">
        <ele>260.65</ele>
        <time>2012-12-17T11:44:03Z</time>
      </trkpt>
      <trkpt lat="42.91105" lon="2.19457">
        <ele>261.14</ele>
        <time>2012-12-17T11:44:21Z</time>
      </trkpt>
      <trkpt lat="42.91235" lon="2.19568">
        <ele>259.21</ele>
        <time>2012-12-17T11:44:43Z</time>
      </trkpt>
      <trkpt lat="42.914" lon="2.19716">
        <ele>259.21</ele>
        <time>2012-12-17T11:45:12Z</time>
      </trkpt>
      <trkpt lat="42.91448" lon="2.19782">
        <ele>258.73</ele>
        <time>2012-12-17T11:45:23Z</time>
      </trkpt>
      <trkpt lat="42.91487" lon="2.19887">
        <ele>258.73</ele>
        <time>2012-12-17T11:45:37Z</time>
      </trkpt>
      <trkpt lat="42.91489" lon="2.19894">
        <ele>258.73</ele>
        <time>2012-12-17T11:45:38Z</time>
      </trkpt>
      <trkpt lat="42.91529" lon="2.20077">
        <ele>257.29</ele>
        <time>2012-12-17T11:45:59Z</time>
      </trkpt>
      <trkpt lat="42.9155" lon="2.20252">
        <ele>256.81</ele>
        <time>2012-12-17T11:46:20Z</time>
      </trkpt>
      <trkpt lat="42.9155" lon="2.20401">
        <ele>254.89</ele>
        <time>2012-12-17T11:46:38Z</time>
      </trkpt>
      <trkpt lat="42.91552" lon="2.20555">
        <ele>253.93</ele>
        <time>2012-12-17T11:46:57Z</time>
      </trkpt>
      <trkpt lat="42.91555" lon="2.20577">
        <ele>253.93</ele>
        <time>2012-12-17T11:47:00Z</time>
      </trkpt>
      <trkpt lat="42.91567" lon="2.20633">
        <ele>252.96</ele>
        <time>2012-12-17T11:47:07Z</time>
      </trkpt>
      <trkpt lat="42.91583" lon="2.20657">
        <ele>251.52</ele>
        <time>2012-12-17T11:47:12Z</time>
      </trkpt>
      <trkpt lat="42.91597" lon="2.20708">
        <ele>250.56</ele>
        <time>2012-12-17T11:47:20Z</time>
      </trkpt>
      <trkpt lat="42.91595" lon="2.20715">
        <ele>250.08</ele>
        <time>2012-12-17T11:47:21Z</time>
      </trkpt>
      <trkpt lat="42.9159" lon="2.20748">
        <ele>250.56</ele>
        <time>2012-12-17T11:47:26Z</time>
      </trkpt>
      <trkpt lat="42.91585" lon="2.20818">
        <ele>253.93</ele>
        <time>2012-12-17T11:47:39Z</time>
      </trkpt>
      <trkpt lat="42.91582" lon="2.2087">
        <ele>256.33</ele>
        <time>2012-12-17T11:47:51Z</time>
      </trkpt>
      <trkpt lat="42.91595" lon="2.20871">
        <ele>256.81</ele>
        <time>2012-12-17T11:47:55Z</time>
      </trkpt>
      <trkpt lat="42.9165" lon="2.2087">
        <ele>255.85</ele>
        <time>2012-12-17T11:48:08Z</time>
      </trkpt>
      <trkpt lat="42.91656" lon="2.20871">
        <ele>255.85</ele>
        <time>2012-12-17T11:48:09Z</time>
      </trkpt>
      <trkpt lat="42.91686" lon="2.20876">
        <ele>253.93</ele>
        <time>2012-12-17T11:48:13Z</time>
      </trkpt>
      <trkpt lat="42.91795" lon="2.20933">
        <ele>252.96</ele>
        <time>2012-12-17T11:48:30Z</time>
      </trkpt>
      <trkpt lat="42.91889" lon="2.21017">
        <ele>252.96</ele>
        <time>2012-12-17T11:48:45Z</time>
      </trkpt>
      <trkpt lat="42.92001" lon="2.21159">
        <ele>252</ele>
        <time>2012-12-17T11:49:06Z</time>
      </trkpt>
      <trkpt lat="42.92064" lon="2.2126">
        <ele>251.52</ele>
        <time>2012-12-17T11:49:20Z</time>
      </trkpt>
      <trkpt lat="42.92096" lon="2.214">
        <ele>251.04</ele>
        <time>2012-12-17T11:49:35Z</time>
      </trkpt>
      <trkpt lat="42.92139" lon="2.21614">
        <ele>250.08</ele>
        <time>2012-12-17T11:49:57Z</time>
      </trkpt>
      <trkpt lat="42.92159" lon="2.21669">
        <ele>250.56</ele>
        <time>2012-12-17T11:50:03Z</time>
      </trkpt>
      <trkpt lat="42.92183" lon="2.21705">
        <ele>251.04</ele>
        <time>2012-12-17T11:50:08Z</time>
      </trkpt>
      <trkpt lat="42.92271" lon="2.21766">
        <ele>252.96</ele>
        <time>2012-12-17T11:50:23Z</time>
      </trkpt>
      <trkpt lat="42.92365" lon="2.21825">
        <ele>253.44</ele>
        <time>2012-12-17T11:50:41Z</time>
      </trkpt>
      <trkpt lat="42.9246" lon="2.2193">
        <ele>251.52</ele>
        <time>2012-12-17T11:51:00Z</time>
      </trkpt>
      <trkpt lat="42.92559" lon="2.2198">
        <ele>250.08</ele>
        <time>2012-12-17T11:51:15Z</time>
      </trkpt>
      <trkpt lat="42.92626" lon="2.21995">
        <ele>252.96</ele>
        <time>2012-12-17T11:51:28Z</time>
      </trkpt>
      <trkpt lat="42.92694" lon="2.21983">
        <ele>253.44</ele>
        <time>2012-12-17T11:51:42Z</time>
      </trkpt>
      <trkpt lat="42.92792" lon="2.2196">
        <ele>252.48</ele>
        <time>2012-12-17T11:52:01Z</time>
      </trkpt>
      <trkpt lat="42.92797" lon="2.2196">
        <ele>252.48</ele>
        <time>2012-12-17T11:52:02Z</time>
      </trkpt>
      <trkpt lat="42.92849" lon="2.21973">
        <ele>255.85</ele>
        <time>2012-12-17T11:52:15Z</time>
      </trkpt>
      <trkpt lat="42.92889" lon="2.21999">
        <ele>259.21</ele>
        <time>2012-12-17T11:52:27Z</time>
      </trkpt>
      <trkpt lat="42.92921" lon="2.22043">
        <ele>262.1</ele>
        <time>2012-12-17T11:52:41Z</time>
      </trkpt>
      <trkpt lat="42.92945" lon="2.22098">
        <ele>264.98</ele>
        <time>2012-12-17T11:52:56Z</time>
      </trkpt>
      <trkpt lat="42.92961" lon="2.22161">
        <ele>267.38</ele>
        <time>2012-12-17T11:53:11Z</time>
      </trkpt>
      <trkpt lat="42.92973" lon="2.2226">
        <ele>268.35</ele>
        <time>2012-12-17T11:53:28Z</time>
      </trkpt>
      <trkpt lat="42.92979" lon="2.22397">
        <ele>264.98</ele>
        <time>2012-12-17T11:53:43Z</time>
      </trkpt>
      <trkpt lat="42.92986" lon="2.22509">
        <ele>262.1</ele>
        <time>2012-12-17T11:53:52Z</time>
      </trkpt>
      <trkpt lat="42.93007" lon="2.22585">
        <ele>258.73</ele>
        <time>2012-12-17T11:53:58Z</time>
      </trkpt>
      <trkpt lat="42.93071" lon="2.22729">
        <ele>255.37</ele>
        <time>2012-12-17T11:54:11Z</time>
      </trkpt>
      <trkpt lat="42.93101" lon="2.22799">
        <ele>252.48</ele>
        <time>2012-12-17T11:54:17Z</time>
      </trkpt>
      <trkpt lat="42.93135" lon="2.22863">
        <ele>250.08</ele>
        <time>2012-12-17T11:54:23Z</time>
      </trkpt>
      <trkpt lat="42.93181" lon="2.22964">
        <ele>246.72</ele>
        <time>2012-12-17T11:54:32Z</time>
      </trkpt>
      <trkpt lat="42.93247" lon="2.23112">
        <ele>243.35</ele>
        <time>2012-12-17T11:54:45Z</time>
      </trkpt>
      <trkpt lat="42.93304" lon="2.23238">
        <ele>239.99</ele>
        <time>2012-12-17T11:54:57Z</time>
      </trkpt>
      <trkpt lat="42.93386" lon="2.23399">
        <ele>239.02</ele>
        <time>2012-12-17T11:55:13Z</time>
      </trkpt>
      <trkpt lat="42.93464" lon="2.23468">
        <ele>239.02</ele>
        <time>2012-12-17T11:55:24Z</time>
      </trkpt>
      <trkpt lat="42.93575" lon="2.23509">
        <ele>238.06</ele>
        <time>2012-12-17T11:55:39Z</time>
      </trkpt>
      <trkpt lat="42.93635" lon="2.23531">
        <ele>237.1</ele>
        <time>2012-12-17T11:55:48Z</time>
      </trkpt>
      <trkpt lat="42.93708" lon="2.23572">
        <ele>236.14</ele>
        <time>2012-12-17T11:56:00Z</time>
      </trkpt>
      <trkpt lat="42.93834" lon="2.23668">
        <ele>235.18</ele>
        <time>2012-12-17T11:56:21Z</time>
      </trkpt>
      <trkpt lat="42.93864" lon="2.23732">
        <ele>234.22</ele>
        <time>2012-12-17T11:56:29Z</time>
      </trkpt>
      <trkpt lat="42.93886" lon="2.23864">
        <ele>234.7</ele>
        <time>2012-12-17T11:56:43Z</time>
      </trkpt>
      <trkpt lat="42.93921" lon="2.24075">
        <ele>234.7</ele>
        <time>2012-12-17T11:57:05Z</time>
      </trkpt>
      <trkpt lat="42.93944" lon="2.24188">
        <ele>235.18</ele>
        <time>2012-12-17T11:57:17Z</time>
      </trkpt>
      <trkpt lat="42.93937" lon="2.24339">
        <ele>233.74</ele>
        <time>2012-12-17T11:57:32Z</time>
      </trkpt>
      <trkpt lat="42.93923" lon="2.24524">
        <ele>233.74</ele>
        <time>2012-12-17T11:57:51Z</time>
      </trkpt>
      <trkpt lat="42.93948" lon="2.24654">
        <ele>233.74</ele>
        <time>2012-12-17T11:58:05Z</time>
      </trkpt>
      <trkpt lat="42.93975" lon="2.24785">
        <ele>233.26</ele>
        <time>2012-12-17T11:58:19Z</time>
      </trkpt>
      <trkpt lat="42.93976" lon="2.24794">
        <ele>232.78</ele>
        <time>2012-12-17T11:58:20Z</time>
      </trkpt>
      <trkpt lat="42.93998" lon="2.24936">
        <ele>232.78</ele>
        <time>2012-12-17T11:58:35Z</time>
      </trkpt>
      <trkpt lat="42.94024" lon="2.25074">
        <ele>232.78</ele>
        <time>2012-12-17T11:58:51Z</time>
      </trkpt>
      <trkpt lat="42.94035" lon="2.25143">
        <ele>232.78</ele>
        <time>2012-12-17T11:58:59Z</time>
      </trkpt>
      <trkpt lat="42.94042" lon="2.25167">
        <ele>232.78</ele>
        <time>2012-12-17T11:59:02Z</time>
      </trkpt>
      <trkpt lat="42.94107" lon="2.25287">
        <ele>231.33</ele>
        <time>2012-12-17T11:59:16Z</time>
      </trkpt>
      <trkpt lat="42.94154" lon="2.25354">
        <ele>230.85</ele>
        <time>2012-12-17T11:59:26Z</time>
      </trkpt>
      <trkpt lat="42.94209" lon="2.25423">
        <ele>230.85</ele>
        <time>2012-12-17T11:59:38Z</time>
      </trkpt>
      <trkpt lat="42.94255" lon="2.25493">
        <ele>231.81</ele>
        <time>2012-12-17T11:59:50Z</time>
      </trkpt>
      <trkpt lat="42.94281" lon="2.2553">
        <ele>230.37</ele>
        <time>2012-12-17T12:00:01Z</time>
      </trkpt>
      <trkpt lat="42.94287" lon="2.25538">
        <ele>230.85</ele>
        <time>2012-12-17T12:00:03Z</time>
      </trkpt>
      <trkpt lat="42.94304" lon="2.25562">
        <ele>230.85</ele>
        <time>2012-12-17T12:00:08Z</time>
      </trkpt>
      <trkpt lat="42.94339" lon="2.25603">
        <ele>230.85</ele>
        <time>2012-12-17T12:00:17Z</time>
      </trkpt>
      <trkpt lat="42.94406" lon="2.25637">
        <ele>231.81</ele>
        <time>2012-12-17T12:00:32Z</time>
      </trkpt>
      <trkpt lat="42.94411" lon="2.25638">
        <ele>231.81</ele>
        <time>2012-12-17T12:00:33Z</time>
      </trkpt>
      <trkpt lat="42.94427" lon="2.25636">
        <ele>232.3</ele>
        <time>2012-12-17T12:00:36Z</time>
      </trkpt>
      <trkpt lat="42.94452" lon="2.25626">
        <ele>232.78</ele>
        <time>2012-12-17T12:00:42Z</time>
      </trkpt>
      <trkpt lat="42.94485" lon="2.25598">
        <ele>234.7</ele>
        <time>2012-12-17T12:00:51Z</time>
      </trkpt>
      <trkpt lat="42.94519" lon="2.25565">
        <ele>235.18</ele>
        <time>2012-12-17T12:01:01Z</time>
      </trkpt>
      <trkpt lat="42.94556" lon="2.25524">
        <ele>234.22</ele>
        <time>2012-12-17T12:01:10Z</time>
      </trkpt>
      <trkpt lat="42.94645" lon="2.25445">
        <ele>231.81</ele>
        <time>2012-12-17T12:01:26Z</time>
      </trkpt>
      <trkpt lat="42.94762" lon="2.25377">
        <ele>230.85</ele>
        <time>2012-12-17T12:01:45Z</time>
      </trkpt>
      <trkpt lat="42.94867" lon="2.25366">
        <ele>227.97</ele>
        <time>2012-12-17T12:02:01Z</time>
      </trkpt>
      <trkpt lat="42.94967" lon="2.25367">
        <ele>229.41</ele>
        <time>2012-12-17T12:02:17Z</time>
      </trkpt>
      <trkpt lat="42.951" lon="2.25367">
        <ele>228.93</ele>
        <time>2012-12-17T12:02:39Z</time>
      </trkpt>
      <trkpt lat="42.95225" lon="2.25368">
        <ele>227.49</ele>
        <time>2012-12-17T12:02:58Z</time>
      </trkpt>
      <trkpt lat="42.95322" lon="2.25409">
        <ele>227.01</ele>
        <time>2012-12-17T12:03:13Z</time>
      </trkpt>
      <trkpt lat="42.95429" lon="2.25512">
        <ele>224.12</ele>
        <time>2012-12-17T12:03:32Z</time>
      </trkpt>
      <trkpt lat="42.95513" lon="2.25625">
        <ele>223.16</ele>
        <time>2012-12-17T12:03:49Z</time>
      </trkpt>
      <trkpt lat="42.95562" lon="2.25749">
        <ele>224.61</ele>
        <time>2012-12-17T12:04:06Z</time>
      </trkpt>
      <trkpt lat="42.95612" lon="2.25882">
        <ele>226.53</ele>
        <time>2012-12-17T12:04:24Z</time>
      </trkpt>
      <trkpt lat="42.95655" lon="2.25967">
        <ele>227.49</ele>
        <time>2012-12-17T12:04:36Z</time>
      </trkpt>
      <trkpt lat="42.9566" lon="2.25973">
        <ele>227.49</ele>
        <time>2012-12-17T12:04:37Z</time>
      </trkpt>
      <trkpt lat="42.95674" lon="2.25989">
        <ele>227.97</ele>
        <time>2012-12-17T12:04:40Z</time>
      </trkpt>
      <trkpt lat="42.95693" lon="2.26006">
        <ele>227.49</ele>
        <time>2012-12-17T12:04:44Z</time>
      </trkpt>
      <trkpt lat="42.95721" lon="2.26023">
        <ele>227.01</ele>
        <time>2012-12-17T12:04:49Z</time>
      </trkpt>
      <trkpt lat="42.95803" lon="2.26025">
        <ele>227.01</ele>
        <time>2012-12-17T12:05:03Z</time>
      </trkpt>
      <trkpt lat="42.95815" lon="2.2602">
        <ele>227.49</ele>
        <time>2012-12-17T12:05:05Z</time>
      </trkpt>
      <trkpt lat="42.95844" lon="2.25998">
        <ele>227.97</ele>
        <time>2012-12-17T12:05:11Z</time>
      </trkpt>
      <trkpt lat="42.95905" lon="2.25902">
        <ele>227.97</ele>
        <time>2012-12-17T12:05:27Z</time>
      </trkpt>
      <trkpt lat="42.95932" lon="2.25803">
        <ele>227.49</ele>
        <time>2012-12-17T12:05:40Z</time>
      </trkpt>
      <trkpt lat="42.95986" lon="2.25704">
        <ele>227.97</ele>
        <time>2012-12-17T12:05:56Z</time>
      </trkpt>
      <trkpt lat="42.96076" lon="2.25651">
        <ele>227.01</ele>
        <time>2012-12-17T12:06:14Z</time>
      </trkpt>
      <trkpt lat="42.96092" lon="2.25649">
        <ele>227.01</ele>
        <time>2012-12-17T12:06:17Z</time>
      </trkpt>
      <trkpt lat="42.96198" lon="2.25663">
        <ele>227.97</ele>
        <time>2012-12-17T12:06:37Z</time>
      </trkpt>
      <trkpt lat="42.96295" lon="2.25685">
        <ele>226.05</ele>
        <time>2012-12-17T12:06:56Z</time>
      </trkpt>
      <trkpt lat="42.96371" lon="2.25714">
        <ele>224.61</ele>
        <time>2012-12-17T12:07:10Z</time>
      </trkpt>
      <trkpt lat="42.96435" lon="2.25789">
        <ele>221.24</ele>
        <time>2012-12-17T12:07:25Z</time>
      </trkpt>
      <trkpt lat="42.96439" lon="2.25795">
        <ele>221.24</ele>
        <time>2012-12-17T12:07:26Z</time>
      </trkpt>
      <trkpt lat="42.96463" lon="2.25818">
        <ele>221.72</ele>
        <time>2012-12-17T12:07:31Z</time>
      </trkpt>
      <trkpt lat="42.96534" lon="2.25861">
        <ele>220.28</ele>
        <time>2012-12-17T12:07:43Z</time>
      </trkpt>
      <trkpt lat="42.96635" lon="2.25921">
        <ele>222.2</ele>
        <time>2012-12-17T12:07:59Z</time>
      </trkpt>
      <trkpt lat="42.96665" lon="2.25943">
        <ele>222.2</ele>
        <time>2012-12-17T12:08:04Z</time>
      </trkpt>
      <trkpt lat="42.96675" lon="2.25954">
        <ele>222.2</ele>
        <time>2012-12-17T12:08:06Z</time>
      </trkpt>
      <trkpt lat="42.96718" lon="2.26038">
        <ele>222.2</ele>
        <time>2012-12-17T12:08:18Z</time>
      </trkpt>
      <trkpt lat="42.96725" lon="2.26051">
        <ele>222.2</ele>
        <time>2012-12-17T12:08:20Z</time>
      </trkpt>
      <trkpt lat="42.96734" lon="2.26063">
        <ele>222.2</ele>
        <time>2012-12-17T12:08:22Z</time>
      </trkpt>
      <trkpt lat="42.96798" lon="2.26087">
        <ele>221.72</ele>
        <time>2012-12-17T12:08:33Z</time>
      </trkpt>
      <trkpt lat="42.96864" lon="2.26042">
        <ele>220.76</ele>
        <time>2012-12-17T12:08:45Z</time>
      </trkpt>
      <trkpt lat="42.96895" lon="2.26008">
        <ele>220.76</ele>
        <time>2012-12-17T12:08:52Z</time>
      </trkpt>
      <trkpt lat="42.96966" lon="2.25961">
        <ele>221.24</ele>
        <time>2012-12-17T12:09:05Z</time>
      </trkpt>
      <trkpt lat="42.96997" lon="2.25955">
        <ele>220.28</ele>
        <time>2012-12-17T12:09:11Z</time>
      </trkpt>
      <trkpt lat="42.97018" lon="2.25959">
        <ele>220.76</ele>
        <time>2012-12-17T12:09:15Z</time>
      </trkpt>
      <trkpt lat="42.9703" lon="2.25965">
        <ele>220.76</ele>
        <time>2012-12-17T12:09:17Z</time>
      </trkpt>
      <trkpt lat="42.97112" lon="2.26052">
        <ele>221.24</ele>
        <time>2012-12-17T12:09:33Z</time>
      </trkpt>
      <trkpt lat="42.97195" lon="2.26076">
        <ele>220.76</ele>
        <time>2012-12-17T12:09:47Z</time>
      </trkpt>
      <trkpt lat="42.9728" lon="2.2606">
        <ele>220.76</ele>
        <time>2012-12-17T12:10:01Z</time>
      </trkpt>
      <trkpt lat="42.97375" lon="2.26078">
        <ele>221.24</ele>
        <time>2012-12-17T12:10:16Z</time>
      </trkpt>
      <trkpt lat="42.97484" lon="2.26133">
        <ele>217.88</ele>
        <time>2012-12-17T12:10:34Z</time>
      </trkpt>
      <trkpt lat="42.97565" lon="2.26251">
        <ele>216.91</ele>
        <time>2012-12-17T12:10:53Z</time>
      </trkpt>
      <trkpt lat="42.97612" lon="2.26299">
        <ele>216.91</ele>
        <time>2012-12-17T12:11:02Z</time>
      </trkpt>
      <trkpt lat="42.97719" lon="2.26333">
        <ele>216.43</ele>
        <time>2012-12-17T12:11:18Z</time>
      </trkpt>
      <trkpt lat="42.97791" lon="2.26349">
        <ele>213.55</ele>
        <time>2012-12-17T12:11:28Z</time>
      </trkpt>
      <trkpt lat="42.97869" lon="2.26365">
        <ele>213.07</ele>
        <time>2012-12-17T12:11:39Z</time>
      </trkpt>
      <trkpt lat="42.97915" lon="2.26387">
        <ele>213.07</ele>
        <time>2012-12-17T12:11:46Z</time>
      </trkpt>
      <trkpt lat="42.97983" lon="2.26449">
        <ele>214.51</ele>
        <time>2012-12-17T12:11:59Z</time>
      </trkpt>
      <trkpt lat="42.98058" lon="2.2652">
        <ele>216.43</ele>
        <time>2012-12-17T12:12:16Z</time>
      </trkpt>
      <trkpt lat="42.98068" lon="2.26527">
        <ele>216.91</ele>
        <time>2012-12-17T12:12:18Z</time>
      </trkpt>
      <trkpt lat="42.9815" lon="2.26547">
        <ele>217.4</ele>
        <time>2012-12-17T12:12:34Z</time>
      </trkpt>
      <trkpt lat="42.98164" lon="2.26542">
        <ele>217.4</ele>
        <time>2012-12-17T12:12:37Z</time>
      </trkpt>
      <trkpt lat="42.98228" lon="2.26506">
        <ele>216.91</ele>
        <time>2012-12-17T12:12:50Z</time>
      </trkpt>
      <trkpt lat="42.98273" lon="2.26478">
        <ele>217.4</ele>
        <time>2012-12-17T12:13:00Z</time>
      </trkpt>
      <trkpt lat="42.98316" lon="2.26451">
        <ele>216.91</ele>
        <time>2012-12-17T12:13:09Z</time>
      </trkpt>
      <trkpt lat="42.98399" lon="2.26385">
        <ele>215.47</ele>
        <time>2012-12-17T12:13:25Z</time>
      </trkpt>
      <trkpt lat="42.98504" lon="2.26304">
        <ele>213.07</ele>
        <time>2012-12-17T12:13:43Z</time>
      </trkpt>
      <trkpt lat="42.98606" lon="2.2625">
        <ele>212.11</ele>
        <time>2012-12-17T12:14:01Z</time>
      </trkpt>
      <trkpt lat="42.98629" lon="2.26246">
        <ele>211.15</ele>
        <time>2012-12-17T12:14:05Z</time>
      </trkpt>
      <trkpt lat="42.98749" lon="2.26256">
        <ele>209.22</ele>
        <time>2012-12-17T12:14:26Z</time>
      </trkpt>
      <trkpt lat="42.98813" lon="2.26265">
        <ele>208.74</ele>
        <time>2012-12-17T12:14:37Z</time>
      </trkpt>
      <trkpt lat="42.98911" lon="2.26235">
        <ele>209.7</ele>
        <time>2012-12-17T12:14:56Z</time>
      </trkpt>
      <trkpt lat="42.98945" lon="2.26197">
        <ele>210.19</ele>
        <time>2012-12-17T12:15:05Z</time>
      </trkpt>
      <trkpt lat="42.98984" lon="2.26106">
        <ele>211.15</ele>
        <time>2012-12-17T12:15:20Z</time>
      </trkpt>
      <trkpt lat="42.99009" lon="2.26045">
        <ele>211.63</ele>
        <time>2012-12-17T12:15:29Z</time>
      </trkpt>
      <trkpt lat="42.99037" lon="2.25997">
        <ele>211.15</ele>
        <time>2012-12-17T12:15:37Z</time>
      </trkpt>
      <trkpt lat="42.99112" lon="2.25927">
        <ele>211.15</ele>
        <time>2012-12-17T12:15:53Z</time>
      </trkpt>
      <trkpt lat="42.99186" lon="2.25845">
        <ele>210.67</ele>
        <time>2012-12-17T12:16:09Z</time>
      </trkpt>
      <trkpt lat="42.99234" lon="2.25795">
        <ele>210.67</ele>
        <time>2012-12-17T12:16:19Z</time>
      </trkpt>
      <trkpt lat="42.99278" lon="2.25749">
        <ele>210.19</ele>
        <time>2012-12-17T12:16:28Z</time>
      </trkpt>
      <trkpt lat="42.99352" lon="2.25648">
        <ele>211.15</ele>
        <time>2012-12-17T12:16:46Z</time>
      </trkpt>
      <trkpt lat="42.99422" lon="2.25513">
        <ele>210.19</ele>
        <time>2012-12-17T12:17:06Z</time>
      </trkpt>
      <trkpt lat="42.99494" lon="2.25397">
        <ele>210.19</ele>
        <time>2012-12-17T12:17:25Z</time>
      </trkpt>
      <trkpt lat="42.99514" lon="2.25377">
        <ele>210.19</ele>
        <time>2012-12-17T12:17:29Z</time>
      </trkpt>
      <trkpt lat="42.99605" lon="2.25317">
        <ele>210.67</ele>
        <time>2012-12-17T12:17:46Z</time>
      </trkpt>
      <trkpt lat="42.99711" lon="2.25269">
        <ele>210.67</ele>
        <time>2012-12-17T12:18:06Z</time>
      </trkpt>
      <trkpt lat="42.99771" lon="2.25247">
        <ele>210.67</ele>
        <time>2012-12-17T12:18:17Z</time>
      </trkpt>
      <trkpt lat="42.99813" lon="2.2522">
        <ele>209.7</ele>
        <time>2012-12-17T12:18:25Z</time>
      </trkpt>
      <trkpt lat="42.99828" lon="2.25205">
        <ele>209.7</ele>
        <time>2012-12-17T12:18:28Z</time>
      </trkpt>
      <trkpt lat="42.99842" lon="2.25189">
        <ele>209.7</ele>
        <time>2012-12-17T12:18:31Z</time>
      </trkpt>
      <trkpt lat="42.9987" lon="2.25148">
        <ele>210.19</ele>
        <time>2012-12-17T12:18:38Z</time>
      </trkpt>
      <trkpt lat="42.99895" lon="2.25112">
        <ele>209.7</ele>
        <time>2012-12-17T12:18:44Z</time>
      </trkpt>
      <trkpt lat="42.99909" lon="2.25097">
        <ele>209.7</ele>
        <time>2012-12-17T12:18:47Z</time>
      </trkpt>
      <trkpt lat="42.99993" lon="2.25028">
        <ele>208.74</ele>
        <time>2012-12-17T12:19:03Z</time>
      </trkpt>
      <trkpt lat="43.0008" lon="2.24981">
        <ele>206.34</ele>
        <time>2012-12-17T12:19:16Z</time>
      </trkpt>
      <trkpt lat="43.00192" lon="2.24911">
        <ele>204.9</ele>
        <time>2012-12-17T12:19:34Z</time>
      </trkpt>
      <trkpt lat="43.00218" lon="2.24886">
        <ele>204.42</ele>
        <time>2012-12-17T12:19:39Z</time>
      </trkpt>
      <trkpt lat="43.00246" lon="2.24871">
        <ele>203.94</ele>
        <time>2012-12-17T12:19:44Z</time>
      </trkpt>
      <trkpt lat="43.00263" lon="2.24866">
        <ele>203.94</ele>
        <time>2012-12-17T12:19:47Z</time>
      </trkpt>
      <trkpt lat="43.0032" lon="2.24859">
        <ele>203.94</ele>
        <time>2012-12-17T12:19:57Z</time>
      </trkpt>
      <trkpt lat="43.00407" lon="2.24895">
        <ele>203.94</ele>
        <time>2012-12-17T12:20:14Z</time>
      </trkpt>
      <trkpt lat="43.00511" lon="2.24943">
        <ele>202.98</ele>
        <time>2012-12-17T12:20:32Z</time>
      </trkpt>
      <trkpt lat="43.00553" lon="2.24931">
        <ele>202.98</ele>
        <time>2012-12-17T12:20:39Z</time>
      </trkpt>
      <trkpt lat="43.00582" lon="2.24902">
        <ele>202.01</ele>
        <time>2012-12-17T12:20:44Z</time>
      </trkpt>
      <trkpt lat="43.00626" lon="2.24843">
        <ele>202.01</ele>
        <time>2012-12-17T12:20:53Z</time>
      </trkpt>
      <trkpt lat="43.0069" lon="2.24788">
        <ele>203.46</ele>
        <time>2012-12-17T12:21:05Z</time>
      </trkpt>
      <trkpt lat="43.00707" lon="2.24785">
        <ele>203.46</ele>
        <time>2012-12-17T12:21:08Z</time>
      </trkpt>
      <trkpt lat="43.00724" lon="2.24786">
        <ele>203.46</ele>
        <time>2012-12-17T12:21:11Z</time>
      </trkpt>
      <trkpt lat="43.00751" lon="2.24799">
        <ele>204.42</ele>
        <time>2012-12-17T12:21:16Z</time>
      </trkpt>
      <trkpt lat="43.00858" lon="2.24877">
        <ele>204.9</ele>
        <time>2012-12-17T12:21:38Z</time>
      </trkpt>
      <trkpt lat="43.00942" lon="2.24897">
        <ele>202.98</ele>
        <time>2012-12-17T12:21:57Z</time>
      </trkpt>
      <trkpt lat="43.00976" lon="2.24894">
        <ele>202.98</ele>
        <time>2012-12-17T12:22:05Z</time>
      </trkpt>
      <trkpt lat="43.00984" lon="2.24894">
        <ele>203.46</ele>
        <time>2012-12-17T12:22:07Z</time>
      </trkpt>
      <trkpt lat="43.00997" lon="2.24891">
        <ele>203.46</ele>
        <time>2012-12-17T12:22:10Z</time>
      </trkpt>
      <trkpt lat="43.01079" lon="2.24914">
        <ele>204.42</ele>
        <time>2012-12-17T12:22:27Z</time>
      </trkpt>
      <trkpt lat="43.01154" lon="2.24965">
        <ele>202.01</ele>
        <time>2012-12-17T12:22:40Z</time>
      </trkpt>
      <trkpt lat="43.01179" lon="2.24999">
        <ele>200.57</ele>
        <time>2012-12-17T12:22:45Z</time>
      </trkpt>
      <trkpt lat="43.01194" lon="2.25028">
        <ele>199.61</ele>
        <time>2012-12-17T12:22:49Z</time>
      </trkpt>
      <trkpt lat="43.01205" lon="2.25053">
        <ele>199.61</ele>
        <time>2012-12-17T12:22:52Z</time>
      </trkpt>
      <trkpt lat="43.01213" lon="2.25085">
        <ele>199.13</ele>
        <time>2012-12-17T12:22:56Z</time>
      </trkpt>
      <trkpt lat="43.01218" lon="2.25182">
        <ele>198.65</ele>
        <time>2012-12-17T12:23:09Z</time>
      </trkpt>
      <trkpt lat="43.0122" lon="2.25205">
        <ele>198.65</ele>
        <time>2012-12-17T12:23:12Z</time>
      </trkpt>
      <trkpt lat="43.01226" lon="2.25227">
        <ele>199.13</ele>
        <time>2012-12-17T12:23:15Z</time>
      </trkpt>
      <trkpt lat="43.0123" lon="2.25254">
        <ele>199.61</ele>
        <time>2012-12-17T12:23:19Z</time>
      </trkpt>
      <trkpt lat="43.01249" lon="2.25341">
        <ele>201.05</ele>
        <time>2012-12-17T12:23:31Z</time>
      </trkpt>
      <trkpt lat="43.0127" lon="2.25413">
        <ele>202.01</ele>
        <time>2012-12-17T12:23:42Z</time>
      </trkpt>
      <trkpt lat="43.01297" lon="2.25489">
        <ele>201.53</ele>
        <time>2012-12-17T12:23:54Z</time>
      </trkpt>
      <trkpt lat="43.01336" lon="2.25569">
        <ele>200.09</ele>
        <time>2012-12-17T12:24:05Z</time>
      </trkpt>
      <trkpt lat="43.01391" lon="2.25634">
        <ele>199.13</ele>
        <time>2012-12-17T12:24:15Z</time>
      </trkpt>
      <trkpt lat="43.01472" lon="2.25657">
        <ele>197.69</ele>
        <time>2012-12-17T12:24:27Z</time>
      </trkpt>
      <trkpt lat="43.01547" lon="2.25645">
        <ele>196.25</ele>
        <time>2012-12-17T12:24:39Z</time>
      </trkpt>
      <trkpt lat="43.01605" lon="2.25603">
        <ele>196.25</ele>
        <time>2012-12-17T12:24:50Z</time>
      </trkpt>
      <trkpt lat="43.01673" lon="2.25555">
        <ele>196.25</ele>
        <time>2012-12-17T12:25:02Z</time>
      </trkpt>
      <trkpt lat="43.01706" lon="2.25519">
        <ele>196.73</ele>
        <time>2012-12-17T12:25:08Z</time>
      </trkpt>
      <trkpt lat="43.01761" lon="2.25392">
        <ele>196.73</ele>
        <time>2012-12-17T12:25:23Z</time>
      </trkpt>
      <trkpt lat="43.01799" lon="2.25277">
        <ele>195.77</ele>
        <time>2012-12-17T12:25:35Z</time>
      </trkpt>
      <trkpt lat="43.01811" lon="2.25252">
        <ele>195.28</ele>
        <time>2012-12-17T12:25:38Z</time>
      </trkpt>
      <trkpt lat="43.01821" lon="2.25237">
        <ele>195.28</ele>
        <time>2012-12-17T12:25:40Z</time>
      </trkpt>
      <trkpt lat="43.01857" lon="2.252">
        <ele>194.32</ele>
        <time>2012-12-17T12:25:46Z</time>
      </trkpt>
      <trkpt lat="43.01944" lon="2.25174">
        <ele>194.8</ele>
        <time>2012-12-17T12:25:59Z</time>
      </trkpt>
      <trkpt lat="43.01969" lon="2.25176">
        <ele>194.8</ele>
        <time>2012-12-17T12:26:03Z</time>
      </trkpt>
      <trkpt lat="43.02042" lon="2.25188">
        <ele>196.25</ele>
        <time>2012-12-17T12:26:15Z</time>
      </trkpt>
      <trkpt lat="43.02162" lon="2.25187">
        <ele>195.28</ele>
        <time>2012-12-17T12:26:35Z</time>
      </trkpt>
      <trkpt lat="43.02226" lon="2.25188">
        <ele>195.28</ele>
        <time>2012-12-17T12:26:46Z</time>
      </trkpt>
      <trkpt lat="43.02273" lon="2.25173">
        <ele>193.84</ele>
        <time>2012-12-17T12:26:54Z</time>
      </trkpt>
      <trkpt lat="43.02337" lon="2.25151">
        <ele>192.88</ele>
        <time>2012-12-17T12:27:04Z</time>
      </trkpt>
      <trkpt lat="43.02406" lon="2.25118">
        <ele>191.92</ele>
        <time>2012-12-17T12:27:14Z</time>
      </trkpt>
      <trkpt lat="43.02445" lon="2.2511">
        <ele>192.4</ele>
        <time>2012-12-17T12:27:20Z</time>
      </trkpt>
      <trkpt lat="43.02471" lon="2.25111">
        <ele>192.88</ele>
        <time>2012-12-17T12:27:24Z</time>
      </trkpt>
      <trkpt lat="43.02505" lon="2.25114">
        <ele>192.88</ele>
        <time>2012-12-17T12:27:29Z</time>
      </trkpt>
      <trkpt lat="43.02576" lon="2.25107">
        <ele>192.88</ele>
        <time>2012-12-17T12:27:40Z</time>
      </trkpt>
      <trkpt lat="43.02589" lon="2.25105">
        <ele>192.88</ele>
        <time>2012-12-17T12:27:42Z</time>
      </trkpt>
      <trkpt lat="43.02609" lon="2.25103">
        <ele>192.88</ele>
        <time>2012-12-17T12:27:45Z</time>
      </trkpt>
      <trkpt lat="43.02661" lon="2.25094">
        <ele>193.36</ele>
        <time>2012-12-17T12:27:53Z</time>
      </trkpt>
      <trkpt lat="43.02755" lon="2.25086">
        <ele>193.84</ele>
        <time>2012-12-17T12:28:09Z</time>
      </trkpt>
      <trkpt lat="43.02876" lon="2.25065">
        <ele>194.32</ele>
        <time>2012-12-17T12:28:27Z</time>
      </trkpt>
      <trkpt lat="43.02999" lon="2.2505">
        <ele>194.8</ele>
        <time>2012-12-17T12:28:48Z</time>
      </trkpt>
      <trkpt lat="43.03097" lon="2.25028">
        <ele>194.32</ele>
        <time>2012-12-17T12:29:06Z</time>
      </trkpt>
      <trkpt lat="43.03187" lon="2.24999">
        <ele>193.84</ele>
        <time>2012-12-17T12:29:23Z</time>
      </trkpt>
      <trkpt lat="43.03272" lon="2.24958">
        <ele>193.36</ele>
        <time>2012-12-17T12:29:40Z</time>
      </trkpt>
      <trkpt lat="43.03305" lon="2.24939">
        <ele>192.88</ele>
        <time>2012-12-17T12:29:47Z</time>
      </trkpt>
      <trkpt lat="43.03386" lon="2.2488">
        <ele>192.4</ele>
        <time>2012-12-17T12:30:05Z</time>
      </trkpt>
      <trkpt lat="43.03466" lon="2.24808">
        <ele>191.44</ele>
        <time>2012-12-17T12:30:23Z</time>
      </trkpt>
      <trkpt lat="43.03549" lon="2.2472">
        <ele>192.4</ele>
        <time>2012-12-17T12:30:43Z</time>
      </trkpt>
      <trkpt lat="43.03558" lon="2.24711">
        <ele>192.4</ele>
        <time>2012-12-17T12:30:45Z</time>
      </trkpt>
      <trkpt lat="43.03604" lon="2.24657">
        <ele>191.44</ele>
        <time>2012-12-17T12:30:56Z</time>
      </trkpt>
      <trkpt lat="43.03665" lon="2.2459">
        <ele>191.44</ele>
        <time>2012-12-17T12:31:09Z</time>
      </trkpt>
      <trkpt lat="43.03763" lon="2.24481">
        <ele>190.48</ele>
        <time>2012-12-17T12:31:29Z</time>
      </trkpt>
      <trkpt lat="43.0387" lon="2.24369">
        <ele>188.08</ele>
        <time>2012-12-17T12:31:52Z</time>
      </trkpt>
      <trkpt lat="43.03978" lon="2.24254">
        <ele>187.11</ele>
        <time>2012-12-17T12:32:18Z</time>
      </trkpt>
      <trkpt lat="43.04107" lon="2.24111">
        <ele>186.63</ele>
        <time>2012-12-17T12:32:50Z</time>
      </trkpt>
      <trkpt lat="43.04161" lon="2.24057">
        <ele>186.63</ele>
        <time>2012-12-17T12:33:03Z</time>
      </trkpt>
      <trkpt lat="43.04248" lon="2.23974">
        <ele>186.15</ele>
        <time>2012-12-17T12:33:22Z</time>
      </trkpt>
      <trkpt lat="43.04339" lon="2.23855">
        <ele>186.15</ele>
        <time>2012-12-17T12:33:45Z</time>
      </trkpt>
      <trkpt lat="43.04365" lon="2.23743">
        <ele>186.63</ele>
        <time>2012-12-17T12:34:02Z</time>
      </trkpt>
      <trkpt lat="43.04372" lon="2.23669">
        <ele>187.11</ele>
        <time>2012-12-17T12:34:13Z</time>
      </trkpt>
      <trkpt lat="43.04384" lon="2.23572">
        <ele>186.63</ele>
        <time>2012-12-17T12:34:27Z</time>
      </trkpt>
      <trkpt lat="43.04406" lon="2.23376">
        <ele>185.19</ele>
        <time>2012-12-17T12:34:52Z</time>
      </trkpt>
      <trkpt lat="43.0442" lon="2.23262">
        <ele>182.79</ele>
        <time>2012-12-17T12:35:08Z</time>
      </trkpt>
      <trkpt lat="43.04424" lon="2.23236">
        <ele>182.31</ele>
        <time>2012-12-17T12:35:12Z</time>
      </trkpt>
      <trkpt lat="43.0443" lon="2.23189">
        <ele>182.31</ele>
        <time>2012-12-17T12:35:19Z</time>
      </trkpt>
      <trkpt lat="43.04448" lon="2.23066">
        <ele>181.35</ele>
        <time>2012-12-17T12:35:37Z</time>
      </trkpt>
      <trkpt lat="43.04458" lon="2.22973">
        <ele>181.35</ele>
        <time>2012-12-17T12:35:50Z</time>
      </trkpt>
      <trkpt lat="43.04474" lon="2.2285">
        <ele>179.9</ele>
        <time>2012-12-17T12:36:09Z</time>
      </trkpt>
      <trkpt lat="43.04491" lon="2.22698">
        <ele>178.94</ele>
        <time>2012-12-17T12:36:28Z</time>
      </trkpt>
      <trkpt lat="43.04505" lon="2.22581">
        <ele>177.98</ele>
        <time>2012-12-17T12:36:43Z</time>
      </trkpt>
      <trkpt lat="43.04505" lon="2.22529">
        <ele>177.5</ele>
        <time>2012-12-17T12:36:50Z</time>
      </trkpt>
      <trkpt lat="43.04513" lon="2.22495">
        <ele>176.54</ele>
        <time>2012-12-17T12:36:55Z</time>
      </trkpt>
      <trkpt lat="43.04529" lon="2.22378">
        <ele>176.54</ele>
        <time>2012-12-17T12:37:11Z</time>
      </trkpt>
      <trkpt lat="43.04547" lon="2.22256">
        <ele>175.58</ele>
        <time>2012-12-17T12:37:26Z</time>
      </trkpt>
      <trkpt lat="43.04557" lon="2.22226">
        <ele>176.06</ele>
        <time>2012-12-17T12:37:30Z</time>
      </trkpt>
      <trkpt lat="43.04604" lon="2.22151">
        <ele>177.98</ele>
        <time>2012-12-17T12:37:44Z</time>
      </trkpt>
      <trkpt lat="43.04662" lon="2.22105">
        <ele>178.94</ele>
        <time>2012-12-17T12:37:59Z</time>
      </trkpt>
      <trkpt lat="43.04685" lon="2.22095">
        <ele>179.42</ele>
        <time>2012-12-17T12:38:04Z</time>
      </trkpt>
      <trkpt lat="43.04795" lon="2.22067">
        <ele>179.9</ele>
        <time>2012-12-17T12:38:26Z</time>
      </trkpt>
      <trkpt lat="43.04861" lon="2.22043">
        <ele>178.46</ele>
        <time>2012-12-17T12:38:39Z</time>
      </trkpt>
      <trkpt lat="43.04908" lon="2.22011">
        <ele>177.5</ele>
        <time>2012-12-17T12:38:49Z</time>
      </trkpt>
      <trkpt lat="43.04938" lon="2.21981">
        <ele>176.54</ele>
        <time>2012-12-17T12:38:57Z</time>
      </trkpt>
      <trkpt lat="43.04964" lon="2.21946">
        <ele>177.02</ele>
        <time>2012-12-17T12:39:05Z</time>
      </trkpt>
      <trkpt lat="43.04973" lon="2.21934">
        <ele>177.02</ele>
        <time>2012-12-17T12:39:08Z</time>
      </trkpt>
      <trkpt lat="43.04985" lon="2.21921">
        <ele>177.02</ele>
        <time>2012-12-17T12:39:11Z</time>
      </trkpt>
      <trkpt lat="43.05003" lon="2.21903">
        <ele>177.02</ele>
        <time>2012-12-17T12:39:15Z</time>
      </trkpt>
      <trkpt lat="43.05015" lon="2.21888">
        <ele>177.02</ele>
        <time>2012-12-17T12:39:18Z</time>
      </trkpt>
      <trkpt lat="43.05027" lon="2.21874">
        <ele>177.02</ele>
        <time>2012-12-17T12:39:21Z</time>
      </trkpt>
      <trkpt lat="43.0505" lon="2.21858">
        <ele>176.54</ele>
        <time>2012-12-17T12:39:26Z</time>
      </trkpt>
      <trkpt lat="43.05074" lon="2.21834">
        <ele>177.02</ele>
        <time>2012-12-17T12:39:32Z</time>
      </trkpt>
      <trkpt lat="43.05083" lon="2.21812">
        <ele>177.02</ele>
        <time>2012-12-17T12:39:36Z</time>
      </trkpt>
      <trkpt lat="43.0509" lon="2.21797">
        <ele>177.5</ele>
        <time>2012-12-17T12:39:39Z</time>
      </trkpt>
      <trkpt lat="43.0511" lon="2.21772">
        <ele>177.98</ele>
        <time>2012-12-17T12:39:44Z</time>
      </trkpt>
      <trkpt lat="43.05128" lon="2.21746">
        <ele>177.02</ele>
        <time>2012-12-17T12:39:49Z</time>
      </trkpt>
      <trkpt lat="43.0519" lon="2.21663">
        <ele>177.5</ele>
        <time>2012-12-17T12:40:06Z</time>
      </trkpt>
      <trkpt lat="43.05227" lon="2.21613">
        <ele>178.94</ele>
        <time>2012-12-17T12:40:18Z</time>
      </trkpt>
      <trkpt lat="43.05253" lon="2.21572">
        <ele>178.94</ele>
        <time>2012-12-17T12:40:26Z</time>
      </trkpt>
      <trkpt lat="43.05278" lon="2.21532">
        <ele>178.94</ele>
        <time>2012-12-17T12:40:34Z</time>
      </trkpt>
      <trkpt lat="43.05322" lon="2.21451">
        <ele>177.98</ele>
        <time>2012-12-17T12:40:49Z</time>
      </trkpt>
      <trkpt lat="43.05332" lon="2.2143">
        <ele>177.98</ele>
        <time>2012-12-17T12:40:52Z</time>
      </trkpt>
      <trkpt lat="43.05346" lon="2.21411">
        <ele>177.98</ele>
        <time>2012-12-17T12:40:56Z</time>
      </trkpt>
      <trkpt lat="43.05402" lon="2.21356">
        <ele>177.5</ele>
        <time>2012-12-17T12:41:11Z</time>
      </trkpt>
      <trkpt lat="43.0543" lon="2.2134">
        <ele>177.02</ele>
        <time>2012-12-17T12:41:17Z</time>
      </trkpt>
      <trkpt lat="43.05464" lon="2.2132">
        <ele>175.58</ele>
        <time>2012-12-17T12:41:24Z</time>
      </trkpt>
      <trkpt lat="43.05545" lon="2.21332">
        <ele>174.14</ele>
        <time>2012-12-17T12:41:38Z</time>
      </trkpt>
      <trkpt lat="43.05654" lon="2.21354">
        <ele>172.69</ele>
        <time>2012-12-17T12:41:56Z</time>
      </trkpt>
      <trkpt lat="43.05714" lon="2.21375">
        <ele>172.69</ele>
        <time>2012-12-17T12:42:07Z</time>
      </trkpt>
      <trkpt lat="43.05786" lon="2.21358">
        <ele>172.69</ele>
        <time>2012-12-17T12:42:20Z</time>
      </trkpt>
      <trkpt lat="43.05823" lon="2.21365">
        <ele>172.21</ele>
        <time>2012-12-17T12:42:27Z</time>
      </trkpt>
      <trkpt lat="43.05868" lon="2.21377">
        <ele>172.69</ele>
        <time>2012-12-17T12:42:36Z</time>
      </trkpt>
      <trkpt lat="43.0596" lon="2.21397">
        <ele>173.66</ele>
        <time>2012-12-17T12:42:55Z</time>
      </trkpt>
      <trkpt lat="43.05974" lon="2.21399">
        <ele>173.66</ele>
        <time>2012-12-17T12:42:58Z</time>
      </trkpt>
      <trkpt lat="43.06042" lon="2.21424">
        <ele>173.66</ele>
        <time>2012-12-17T12:43:12Z</time>
      </trkpt>
      <trkpt lat="43.06055" lon="2.21444">
        <ele>173.66</ele>
        <time>2012-12-17T12:43:16Z</time>
      </trkpt>
      <trkpt lat="43.06088" lon="2.21478">
        <ele>172.21</ele>
        <time>2012-12-17T12:43:29Z</time>
      </trkpt>
      <trkpt lat="43.0609" lon="2.21479">
        <ele>172.21</ele>
        <time>2012-12-17T12:43:46Z</time>
      </trkpt>
      <trkpt lat="43.06088" lon="2.21474">
        <ele>170.77</ele>
        <time>2012-12-17T12:44:30Z</time>
      </trkpt>
      <trkpt lat="43.06093" lon="2.21469">
        <ele>171.25</ele>
        <time>2012-12-17T12:47:14Z</time>
      </trkpt>
      <trkpt lat="43.0609" lon="2.21471">
        <ele>172.21</ele>
        <time>2012-12-17T12:47:40Z</time>
      </trkpt>
      <trkpt lat="43.06092" lon="2.21467">
        <ele>171.73</ele>
        <time>2012-12-17T12:49:20Z</time>
      </trkpt>
      <trkpt lat="43.06099" lon="2.21463">
        <ele>172.21</ele>
        <time>2012-12-17T12:49:25Z</time>
      </trkpt>
      <trkpt lat="43.06147" lon="2.2148">
        <ele>171.73</ele>
        <time>2012-12-17T12:49:40Z</time>
      </trkpt>
      <trkpt lat="43.0622" lon="2.21512">
        <ele>170.77</ele>
        <time>2012-12-17T12:49:57Z</time>
      </trkpt>
      <trkpt lat="43.06295" lon="2.21549">
        <ele>170.29</ele>
        <time>2012-12-17T12:50:14Z</time>
      </trkpt>
      <trkpt lat="43.06375" lon="2.21589">
        <ele>169.81</ele>
        <time>2012-12-17T12:50:32Z</time>
      </trkpt>
      <trkpt lat="43.06466" lon="2.21632">
        <ele>169.81</ele>
        <time>2012-12-17T12:50:52Z</time>
      </trkpt>
      <trkpt lat="43.06504" lon="2.21652">
        <ele>169.33</ele>
        <time>2012-12-17T12:51:05Z</time>
      </trkpt>
      <trkpt lat="43.06553" lon="2.21675">
        <ele>169.81</ele>
        <time>2012-12-17T12:51:18Z</time>
      </trkpt>
      <trkpt lat="43.06631" lon="2.21711">
        <ele>169.33</ele>
        <time>2012-12-17T12:51:33Z</time>
      </trkpt>
      <trkpt lat="43.06705" lon="2.21746">
        <ele>169.81</ele>
        <time>2012-12-17T12:51:46Z</time>
      </trkpt>
      <trkpt lat="43.0686" lon="2.21825">
        <ele>169.33</ele>
        <time>2012-12-17T12:52:13Z</time>
      </trkpt>
      <trkpt lat="43.0695" lon="2.21866">
        <ele>170.29</ele>
        <time>2012-12-17T12:52:29Z</time>
      </trkpt>
      <trkpt lat="43.07052" lon="2.21915">
        <ele>169.33</ele>
        <time>2012-12-17T12:52:46Z</time>
      </trkpt>
      <trkpt lat="43.07195" lon="2.21982">
        <ele>168.37</ele>
        <time>2012-12-17T12:53:08Z</time>
      </trkpt>
      <trkpt lat="43.0728" lon="2.2202">
        <ele>167.89</ele>
        <time>2012-12-17T12:53:23Z</time>
      </trkpt>
      <trkpt lat="43.07332" lon="2.22044">
        <ele>167.89</ele>
        <time>2012-12-17T12:53:32Z</time>
      </trkpt>
      <trkpt lat="43.07352" lon="2.22076">
        <ele>166.45</ele>
        <time>2012-12-17T12:53:38Z</time>
      </trkpt>
      <trkpt lat="43.07394" lon="2.22104">
        <ele>166.93</ele>
        <time>2012-12-17T12:53:47Z</time>
      </trkpt>
      <trkpt lat="43.07549" lon="2.22161">
        <ele>167.41</ele>
        <time>2012-12-17T12:54:10Z</time>
      </trkpt>
      <trkpt lat="43.07687" lon="2.22217">
        <ele>166.93</ele>
        <time>2012-12-17T12:54:32Z</time>
      </trkpt>
      <trkpt lat="43.07805" lon="2.22275">
        <ele>165.96</ele>
        <time>2012-12-17T12:54:50Z</time>
      </trkpt>
      <trkpt lat="43.07933" lon="2.22336">
        <ele>165.48</ele>
        <time>2012-12-17T12:55:09Z</time>
      </trkpt>
      <trkpt lat="43.08062" lon="2.22398">
        <ele>165.48</ele>
        <time>2012-12-17T12:55:29Z</time>
      </trkpt>
      <trkpt lat="43.08182" lon="2.22455">
        <ele>164.52</ele>
        <time>2012-12-17T12:55:47Z</time>
      </trkpt>
      <trkpt lat="43.08284" lon="2.22506">
        <ele>164.04</ele>
        <time>2012-12-17T12:56:02Z</time>
      </trkpt>
      <trkpt lat="43.08353" lon="2.22539">
        <ele>163.08</ele>
        <time>2012-12-17T12:56:13Z</time>
      </trkpt>
      <trkpt lat="43.08462" lon="2.22582">
        <ele>163.08</ele>
        <time>2012-12-17T12:56:31Z</time>
      </trkpt>
      <trkpt lat="43.08498" lon="2.22592">
        <ele>162.6</ele>
        <time>2012-12-17T12:56:37Z</time>
      </trkpt>
      <trkpt lat="43.08552" lon="2.22614">
        <ele>161.64</ele>
        <time>2012-12-17T12:56:46Z</time>
      </trkpt>
      <trkpt lat="43.08659" lon="2.2268">
        <ele>159.72</ele>
        <time>2012-12-17T12:57:02Z</time>
      </trkpt>
      <trkpt lat="43.08741" lon="2.22722">
        <ele>158.75</ele>
        <time>2012-12-17T12:57:14Z</time>
      </trkpt>
      <trkpt lat="43.08841" lon="2.22771">
        <ele>158.75</ele>
        <time>2012-12-17T12:57:29Z</time>
      </trkpt>
      <trkpt lat="43.08958" lon="2.2283">
        <ele>158.27</ele>
        <time>2012-12-17T12:57:48Z</time>
      </trkpt>
      <trkpt lat="43.09032" lon="2.22866">
        <ele>158.27</ele>
        <time>2012-12-17T12:58:01Z</time>
      </trkpt>
      <trkpt lat="43.09115" lon="2.22905">
        <ele>157.79</ele>
        <time>2012-12-17T12:58:15Z</time>
      </trkpt>
      <trkpt lat="43.09212" lon="2.22952">
        <ele>157.31</ele>
        <time>2012-12-17T12:58:32Z</time>
      </trkpt>
      <trkpt lat="43.09294" lon="2.22981">
        <ele>157.31</ele>
        <time>2012-12-17T12:58:46Z</time>
      </trkpt>
      <trkpt lat="43.09318" lon="2.22983">
        <ele>157.31</ele>
        <time>2012-12-17T12:58:50Z</time>
      </trkpt>
      <trkpt lat="43.09348" lon="2.22998">
        <ele>157.31</ele>
        <time>2012-12-17T12:58:56Z</time>
      </trkpt>
      <trkpt lat="43.09374" lon="2.22995">
        <ele>157.31</ele>
        <time>2012-12-17T12:59:01Z</time>
      </trkpt>
      <trkpt lat="43.09451" lon="2.23021">
        <ele>157.31</ele>
        <time>2012-12-17T12:59:16Z</time>
      </trkpt>
      <trkpt lat="43.09581" lon="2.23087">
        <ele>158.75</ele>
        <time>2012-12-17T12:59:44Z</time>
      </trkpt>
      <trkpt lat="43.09674" lon="2.23193">
        <ele>158.75</ele>
        <time>2012-12-17T13:00:07Z</time>
      </trkpt>
      <trkpt lat="43.09736" lon="2.23353">
        <ele>157.79</ele>
        <time>2012-12-17T13:00:29Z</time>
      </trkpt>
      <trkpt lat="43.09805" lon="2.23595">
        <ele>157.31</ele>
        <time>2012-12-17T13:00:59Z</time>
      </trkpt>
      <trkpt lat="43.09926" lon="2.23925">
        <ele>155.87</ele>
        <time>2012-12-17T13:01:41Z</time>
      </trkpt>
      <trkpt lat="43.1004" lon="2.24231">
        <ele>154.91</ele>
        <time>2012-12-17T13:02:18Z</time>
      </trkpt>
      <trkpt lat="43.10178" lon="2.246">
        <ele>156.35</ele>
        <time>2012-12-17T13:03:00Z</time>
      </trkpt>
      <trkpt lat="43.10277" lon="2.24864">
        <ele>153.95</ele>
        <time>2012-12-17T13:03:29Z</time>
      </trkpt>
      <trkpt lat="43.10358" lon="2.25006">
        <ele>153.47</ele>
        <time>2012-12-17T13:03:47Z</time>
      </trkpt>
      <trkpt lat="43.10437" lon="2.25065">
        <ele>154.43</ele>
        <time>2012-12-17T13:04:01Z</time>
      </trkpt>
      <trkpt lat="43.10474" lon="2.25113">
        <ele>154.91</ele>
        <time>2012-12-17T13:04:10Z</time>
      </trkpt>
      <trkpt lat="43.10488" lon="2.25148">
        <ele>153.95</ele>
        <time>2012-12-17T13:04:18Z</time>
      </trkpt>
      <trkpt lat="43.10495" lon="2.25131">
        <ele>154.43</ele>
        <time>2012-12-17T13:04:25Z</time>
      </trkpt>
      <trkpt lat="43.10492" lon="2.25118">
        <ele>154.91</ele>
        <time>2012-12-17T13:04:27Z</time>
      </trkpt>
      <trkpt lat="43.10497" lon="2.25067">
        <ele>155.39</ele>
        <time>2012-12-17T13:04:35Z</time>
      </trkpt>
      <trkpt lat="43.10512" lon="2.25089">
        <ele>152.99</ele>
        <time>2012-12-17T13:04:41Z</time>
      </trkpt>
      <trkpt lat="43.10511" lon="2.25097">
        <ele>152.99</ele>
        <time>2012-12-17T13:04:42Z</time>
      </trkpt>
      <trkpt lat="43.10511" lon="2.25143">
        <ele>153.47</ele>
        <time>2012-12-17T13:04:48Z</time>
      </trkpt>
      <trkpt lat="43.10516" lon="2.25169">
        <ele>153.95</ele>
        <time>2012-12-17T13:04:51Z</time>
      </trkpt>
      <trkpt lat="43.1055" lon="2.2531">
        <ele>153.95</ele>
        <time>2012-12-17T13:05:07Z</time>
      </trkpt>
      <trkpt lat="43.1058" lon="2.25443">
        <ele>154.43</ele>
        <time>2012-12-17T13:05:21Z</time>
      </trkpt>
      <trkpt lat="43.10608" lon="2.2557">
        <ele>155.87</ele>
        <time>2012-12-17T13:05:36Z</time>
      </trkpt>
      <trkpt lat="43.10648" lon="2.25688">
        <ele>157.79</ele>
        <time>2012-12-17T13:05:52Z</time>
      </trkpt>
      <trkpt lat="43.10698" lon="2.25822">
        <ele>156.83</ele>
        <time>2012-12-17T13:06:09Z</time>
      </trkpt>
      <trkpt lat="43.10791" lon="2.26041">
        <ele>155.39</ele>
        <time>2012-12-17T13:06:35Z</time>
      </trkpt>
      <trkpt lat="43.10898" lon="2.26314">
        <ele>152.51</ele>
        <time>2012-12-17T13:07:06Z</time>
      </trkpt>
      <trkpt lat="43.11005" lon="2.26612">
        <ele>151.06</ele>
        <time>2012-12-17T13:07:40Z</time>
      </trkpt>
      <trkpt lat="43.11054" lon="2.2675">
        <ele>151.06</ele>
        <time>2012-12-17T13:07:57Z</time>
      </trkpt>
      <trkpt lat="43.11131" lon="2.26967">
        <ele>151.06</ele>
        <time>2012-12-17T13:08:24Z</time>
      </trkpt>
      <trkpt lat="43.11168" lon="2.27063">
        <ele>150.58</ele>
        <time>2012-12-17T13:08:40Z</time>
      </trkpt>
      <trkpt lat="43.11169" lon="2.27062">
        <ele>150.58</ele>
        <time>2012-12-17T13:08:52Z</time>
      </trkpt>
      <trkpt lat="43.11168" lon="2.27068">
        <ele>150.1</ele>
        <time>2012-12-17T13:09:20Z</time>
      </trkpt>
      <trkpt lat="43.11169" lon="2.27096">
        <ele>150.58</ele>
        <time>2012-12-17T13:09:33Z</time>
      </trkpt>
      <trkpt lat="43.1117" lon="2.27097">
        <ele>149.62</ele>
        <time>2012-12-17T13:09:46Z</time>
      </trkpt>
      <trkpt lat="43.11168" lon="2.27106">
        <ele>150.58</ele>
        <time>2012-12-17T13:10:00Z</time>
      </trkpt>
      <trkpt lat="43.11168" lon="2.27107">
        <ele>151.06</ele>
        <time>2012-12-17T13:10:18Z</time>
      </trkpt>
      <trkpt lat="43.1119" lon="2.27164">
        <ele>151.06</ele>
        <time>2012-12-17T13:10:31Z</time>
      </trkpt>
      <trkpt lat="43.11261" lon="2.27303">
        <ele>151.06</ele>
        <time>2012-12-17T13:10:53Z</time>
      </trkpt>
      <trkpt lat="43.11335" lon="2.27432">
        <ele>150.1</ele>
        <time>2012-12-17T13:11:13Z</time>
      </trkpt>
      <trkpt lat="43.11376" lon="2.27519">
        <ele>149.62</ele>
        <time>2012-12-17T13:11:25Z</time>
      </trkpt>
      <trkpt lat="43.11419" lon="2.27611">
        <ele>149.14</ele>
        <time>2012-12-17T13:11:38Z</time>
      </trkpt>
      <trkpt lat="43.11471" lon="2.277">
        <ele>149.14</ele>
        <time>2012-12-17T13:11:51Z</time>
      </trkpt>
      <trkpt lat="43.11535" lon="2.27799">
        <ele>149.62</ele>
        <time>2012-12-17T13:12:06Z</time>
      </trkpt>
      <trkpt lat="43.11575" lon="2.27872">
        <ele>148.66</ele>
        <time>2012-12-17T13:12:17Z</time>
      </trkpt>
      <trkpt lat="43.11585" lon="2.27894">
        <ele>148.66</ele>
        <time>2012-12-17T13:12:20Z</time>
      </trkpt>
      <trkpt lat="43.11599" lon="2.27932">
        <ele>148.18</ele>
        <time>2012-12-17T13:12:25Z</time>
      </trkpt>
      <trkpt lat="43.11642" lon="2.28049">
        <ele>148.18</ele>
        <time>2012-12-17T13:12:40Z</time>
      </trkpt>
      <trkpt lat="43.11692" lon="2.28182">
        <ele>147.7</ele>
        <time>2012-12-17T13:12:57Z</time>
      </trkpt>
      <trkpt lat="43.11722" lon="2.28313">
        <ele>147.7</ele>
        <time>2012-12-17T13:13:13Z</time>
      </trkpt>
      <trkpt lat="43.11779" lon="2.28487">
        <ele>146.26</ele>
        <time>2012-12-17T13:13:35Z</time>
      </trkpt>
      <trkpt lat="43.1185" lon="2.28607">
        <ele>145.78</ele>
        <time>2012-12-17T13:13:52Z</time>
      </trkpt>
      <trkpt lat="43.11951" lon="2.28772">
        <ele>145.78</ele>
        <time>2012-12-17T13:14:16Z</time>
      </trkpt>
      <trkpt lat="43.12032" lon="2.289">
        <ele>145.78</ele>
        <time>2012-12-17T13:14:33Z</time>
      </trkpt>
      <trkpt lat="43.12118" lon="2.29032">
        <ele>145.3</ele>
        <time>2012-12-17T13:14:51Z</time>
      </trkpt>
      <trkpt lat="43.12203" lon="2.29162">
        <ele>144.34</ele>
        <time>2012-12-17T13:15:10Z</time>
      </trkpt>
      <trkpt lat="43.12247" lon="2.29231">
        <ele>143.85</ele>
        <time>2012-12-17T13:15:19Z</time>
      </trkpt>
      <trkpt lat="43.12317" lon="2.29342">
        <ele>141.45</ele>
        <time>2012-12-17T13:15:33Z</time>
      </trkpt>
      <trkpt lat="43.12429" lon="2.29576">
        <ele>140.01</ele>
        <time>2012-12-17T13:15:59Z</time>
      </trkpt>
      <trkpt lat="43.12557" lon="2.29867">
        <ele>137.61</ele>
        <time>2012-12-17T13:16:30Z</time>
      </trkpt>
      <trkpt lat="43.12665" lon="2.30075">
        <ele>137.61</ele>
        <time>2012-12-17T13:16:55Z</time>
      </trkpt>
      <trkpt lat="43.12745" lon="2.30125">
        <ele>137.61</ele>
        <time>2012-12-17T13:17:08Z</time>
      </trkpt>
      <trkpt lat="43.12793" lon="2.3013">
        <ele>137.61</ele>
        <time>2012-12-17T13:17:15Z</time>
      </trkpt>
      <trkpt lat="43.12897" lon="2.30084">
        <ele>136.16</ele>
        <time>2012-12-17T13:17:31Z</time>
      </trkpt>
      <trkpt lat="43.13034" lon="2.29988">
        <ele>136.64</ele>
        <time>2012-12-17T13:17:57Z</time>
      </trkpt>
      <trkpt lat="43.1315" lon="2.29913">
        <ele>139.53</ele>
        <time>2012-12-17T13:18:26Z</time>
      </trkpt>
      <trkpt lat="43.13251" lon="2.29881">
        <ele>140.97</ele>
        <time>2012-12-17T13:18:53Z</time>
      </trkpt>
      <trkpt lat="43.13353" lon="2.29891">
        <ele>140.01</ele>
        <time>2012-12-17T13:19:16Z</time>
      </trkpt>
      <trkpt lat="43.13458" lon="2.29929">
        <ele>140.97</ele>
        <time>2012-12-17T13:19:40Z</time>
      </trkpt>
      <trkpt lat="43.136" lon="2.29979">
        <ele>140.97</ele>
        <time>2012-12-17T13:20:10Z</time>
      </trkpt>
      <trkpt lat="43.13613" lon="2.29985">
        <ele>140.97</ele>
        <time>2012-12-17T13:20:13Z</time>
      </trkpt>
      <trkpt lat="43.13677" lon="2.30017">
        <ele>142.41</ele>
        <time>2012-12-17T13:20:30Z</time>
      </trkpt>
      <trkpt lat="43.13739" lon="2.30037">
        <ele>143.85</ele>
        <time>2012-12-17T13:20:48Z</time>
      </trkpt>
      <trkpt lat="43.13809" lon="2.30069">
        <ele>145.78</ele>
        <time>2012-12-17T13:21:09Z</time>
      </trkpt>
      <trkpt lat="43.13871" lon="2.3009">
        <ele>147.22</ele>
        <time>2012-12-17T13:21:24Z</time>
      </trkpt>
      <trkpt lat="43.13972" lon="2.30081">
        <ele>146.26</ele>
        <time>2012-12-17T13:21:43Z</time>
      </trkpt>
      <trkpt lat="43.14075" lon="2.30009">
        <ele>143.85</ele>
        <time>2012-12-17T13:22:02Z</time>
      </trkpt>
      <trkpt lat="43.14148" lon="2.29889">
        <ele>141.93</ele>
        <time>2012-12-17T13:22:21Z</time>
      </trkpt>
      <trkpt lat="43.14195" lon="2.29788">
        <ele>140.97</ele>
        <time>2012-12-17T13:22:40Z</time>
      </trkpt>
      <trkpt lat="43.14258" lon="2.29655">
        <ele>140.01</ele>
        <time>2012-12-17T13:23:05Z</time>
      </trkpt>
      <trkpt lat="43.1433" lon="2.29506">
        <ele>138.09</ele>
        <time>2012-12-17T13:23:33Z</time>
      </trkpt>
      <trkpt lat="43.14417" lon="2.29358">
        <ele>135.2</ele>
        <time>2012-12-17T13:24:01Z</time>
      </trkpt>
      <trkpt lat="43.14518" lon="2.29289">
        <ele>134.72</ele>
        <time>2012-12-17T13:24:22Z</time>
      </trkpt>
      <trkpt lat="43.14654" lon="2.29227">
        <ele>133.76</ele>
        <time>2012-12-17T13:24:50Z</time>
      </trkpt>
      <trkpt lat="43.14752" lon="2.2918">
        <ele>130.4</ele>
        <time>2012-12-17T13:25:11Z</time>
      </trkpt>
      <trkpt lat="43.14871" lon="2.2912">
        <ele>130.4</ele>
        <time>2012-12-17T13:25:36Z</time>
      </trkpt>
      <trkpt lat="43.14967" lon="2.29073">
        <ele>130.88</ele>
        <time>2012-12-17T13:25:58Z</time>
      </trkpt>
      <trkpt lat="43.15093" lon="2.29013">
        <ele>132.8</ele>
        <time>2012-12-17T13:26:28Z</time>
      </trkpt>
      <trkpt lat="43.15212" lon="2.28957">
        <ele>132.8</ele>
        <time>2012-12-17T13:26:57Z</time>
      </trkpt>
      <trkpt lat="43.15326" lon="2.28951">
        <ele>132.8</ele>
        <time>2012-12-17T13:27:19Z</time>
      </trkpt>
      <trkpt lat="43.15442" lon="2.29009">
        <ele>131.36</ele>
        <time>2012-12-17T13:27:41Z</time>
      </trkpt>
      <trkpt lat="43.1559" lon="2.291">
        <ele>129.43</ele>
        <time>2012-12-17T13:28:04Z</time>
      </trkpt>
      <trkpt lat="43.15716" lon="2.29178">
        <ele>129.92</ele>
        <time>2012-12-17T13:28:25Z</time>
      </trkpt>
      <trkpt lat="43.15846" lon="2.29261">
        <ele>129.92</ele>
        <time>2012-12-17T13:28:50Z</time>
      </trkpt>
      <trkpt lat="43.15932" lon="2.29351">
        <ele>132.32</ele>
        <time>2012-12-17T13:29:12Z</time>
      </trkpt>
      <trkpt lat="43.15991" lon="2.29461">
        <ele>132.8</ele>
        <time>2012-12-17T13:29:33Z</time>
      </trkpt>
      <trkpt lat="43.16026" lon="2.29589">
        <ele>132.8</ele>
        <time>2012-12-17T13:29:53Z</time>
      </trkpt>
      <trkpt lat="43.16047" lon="2.29722">
        <ele>133.28</ele>
        <time>2012-12-17T13:30:09Z</time>
      </trkpt>
      <trkpt lat="43.16085" lon="2.2989">
        <ele>135.2</ele>
        <time>2012-12-17T13:30:30Z</time>
      </trkpt>
      <trkpt lat="43.16145" lon="2.29978">
        <ele>135.68</ele>
        <time>2012-12-17T13:30:44Z</time>
      </trkpt>
      <trkpt lat="43.16242" lon="2.30035">
        <ele>134.24</ele>
        <time>2012-12-17T13:31:00Z</time>
      </trkpt>
      <trkpt lat="43.16357" lon="2.30092">
        <ele>133.28</ele>
        <time>2012-12-17T13:31:18Z</time>
      </trkpt>
      <trkpt lat="43.16497" lon="2.3016">
        <ele>130.88</ele>
        <time>2012-12-17T13:31:41Z</time>
      </trkpt>
      <trkpt lat="43.16591" lon="2.3017">
        <ele>130.4</ele>
        <time>2012-12-17T13:31:55Z</time>
      </trkpt>
      <trkpt lat="43.16682" lon="2.30112">
        <ele>128.95</ele>
        <time>2012-12-17T13:32:11Z</time>
      </trkpt>
      <trkpt lat="43.16755" lon="2.30048">
        <ele>127.99</ele>
        <time>2012-12-17T13:32:25Z</time>
      </trkpt>
      <trkpt lat="43.16807" lon="2.30028">
        <ele>127.51</ele>
        <time>2012-12-17T13:32:33Z</time>
      </trkpt>
      <trkpt lat="43.16861" lon="2.30023">
        <ele>126.55</ele>
        <time>2012-12-17T13:32:41Z</time>
      </trkpt>
      <trkpt lat="43.16929" lon="2.30023">
        <ele>125.59</ele>
        <time>2012-12-17T13:32:52Z</time>
      </trkpt>
      <trkpt lat="43.17025" lon="2.30074">
        <ele>124.15</ele>
        <time>2012-12-17T13:33:09Z</time>
      </trkpt>
      <trkpt lat="43.17083" lon="2.30138">
        <ele>123.67</ele>
        <time>2012-12-17T13:33:23Z</time>
      </trkpt>
      <trkpt lat="43.17086" lon="2.30143">
        <ele>123.67</ele>
        <time>2012-12-17T13:33:24Z</time>
      </trkpt>
      <trkpt lat="43.17111" lon="2.302">
        <ele>122.71</ele>
        <time>2012-12-17T13:33:38Z</time>
      </trkpt>
      <trkpt lat="43.17114" lon="2.30203">
        <ele>121.26</ele>
        <time>2012-12-17T13:33:52Z</time>
      </trkpt>
      <trkpt lat="43.17117" lon="2.30204">
        <ele>121.26</ele>
        <time>2012-12-17T13:35:45Z</time>
      </trkpt>
      <trkpt lat="43.17118" lon="2.30206">
        <ele>121.26</ele>
        <time>2012-12-17T13:35:46Z</time>
      </trkpt>
      <trkpt lat="43.17128" lon="2.30214">
        <ele>121.26</ele>
        <time>2012-12-17T13:35:50Z</time>
      </trkpt>
      <trkpt lat="43.17156" lon="2.3023">
        <ele>122.22</ele>
        <time>2012-12-17T13:36:03Z</time>
      </trkpt>
      <trkpt lat="43.17196" lon="2.30234">
        <ele>121.26</ele>
        <time>2012-12-17T13:36:15Z</time>
      </trkpt>
      <trkpt lat="43.17231" lon="2.30224">
        <ele>121.74</ele>
        <time>2012-12-17T13:36:26Z</time>
      </trkpt>
      <trkpt lat="43.17235" lon="2.30224">
        <ele>121.74</ele>
        <time>2012-12-17T13:36:27Z</time>
      </trkpt>
      <trkpt lat="43.17262" lon="2.30224">
        <ele>121.74</ele>
        <time>2012-12-17T13:36:33Z</time>
      </trkpt>
      <trkpt lat="43.17342" lon="2.30262">
        <ele>122.22</ele>
        <time>2012-12-17T13:36:51Z</time>
      </trkpt>
      <trkpt lat="43.17413" lon="2.30334">
        <ele>123.19</ele>
        <time>2012-12-17T13:37:09Z</time>
      </trkpt>
      <trkpt lat="43.175" lon="2.30369">
        <ele>121.26</ele>
        <time>2012-12-17T13:37:24Z</time>
      </trkpt>
      <trkpt lat="43.1772" lon="2.30452">
        <ele>119.34</ele>
        <time>2012-12-17T13:37:58Z</time>
      </trkpt>
      <trkpt lat="43.17889" lon="2.30516">
        <ele>119.34</ele>
        <time>2012-12-17T13:38:25Z</time>
      </trkpt>
      <trkpt lat="43.18054" lon="2.30577">
        <ele>117.9</ele>
        <time>2012-12-17T13:38:52Z</time>
      </trkpt>
      <trkpt lat="43.18228" lon="2.30642">
        <ele>118.38</ele>
        <time>2012-12-17T13:39:20Z</time>
      </trkpt>
      <trkpt lat="43.18395" lon="2.30705">
        <ele>116.94</ele>
        <time>2012-12-17T13:39:47Z</time>
      </trkpt>
      <trkpt lat="43.18515" lon="2.30754">
        <ele>117.9</ele>
        <time>2012-12-17T13:40:07Z</time>
      </trkpt>
      <trkpt lat="43.18542" lon="2.30765">
        <ele>118.86</ele>
        <time>2012-12-17T13:40:12Z</time>
      </trkpt>
      <trkpt lat="43.18638" lon="2.30827">
        <ele>118.38</ele>
        <time>2012-12-17T13:40:30Z</time>
      </trkpt>
      <trkpt lat="43.18721" lon="2.30929">
        <ele>118.86</ele>
        <time>2012-12-17T13:40:48Z</time>
      </trkpt>
      <trkpt lat="43.18846" lon="2.31098">
        <ele>119.34</ele>
        <time>2012-12-17T13:41:16Z</time>
      </trkpt>
      <trkpt lat="43.18912" lon="2.31214">
        <ele>118.38</ele>
        <time>2012-12-17T13:41:34Z</time>
      </trkpt>
      <trkpt lat="43.18955" lon="2.31323">
        <ele>117.9</ele>
        <time>2012-12-17T13:41:48Z</time>
      </trkpt>
      <trkpt lat="43.18978" lon="2.31384">
        <ele>118.86</ele>
        <time>2012-12-17T13:41:56Z</time>
      </trkpt>
      <trkpt lat="43.18988" lon="2.31458">
        <ele>118.86</ele>
        <time>2012-12-17T13:42:06Z</time>
      </trkpt>
      <trkpt lat="43.18992" lon="2.31463">
        <ele>119.34</ele>
        <time>2012-12-17T13:42:07Z</time>
      </trkpt>
      <trkpt lat="43.19014" lon="2.31471">
        <ele>119.82</ele>
        <time>2012-12-17T13:42:11Z</time>
      </trkpt>
      <trkpt lat="43.19048" lon="2.31454">
        <ele>120.78</ele>
        <time>2012-12-17T13:42:18Z</time>
      </trkpt>
      <trkpt lat="43.19134" lon="2.3149">
        <ele>119.82</ele>
        <time>2012-12-17T13:42:35Z</time>
      </trkpt>
      <trkpt lat="43.19227" lon="2.31575">
        <ele>121.74</ele>
        <time>2012-12-17T13:42:59Z</time>
      </trkpt>
      <trkpt lat="43.19272" lon="2.31642">
        <ele>122.71</ele>
        <time>2012-12-17T13:43:12Z</time>
      </trkpt>
      <trkpt lat="43.19318" lon="2.31738">
        <ele>124.63</ele>
        <time>2012-12-17T13:43:30Z</time>
      </trkpt>
      <trkpt lat="43.19376" lon="2.319">
        <ele>127.99</ele>
        <time>2012-12-17T13:44:00Z</time>
      </trkpt>
      <trkpt lat="43.19419" lon="2.32028">
        <ele>130.88</ele>
        <time>2012-12-17T13:44:24Z</time>
      </trkpt>
      <trkpt lat="43.19471" lon="2.3213">
        <ele>134.24</ele>
        <time>2012-12-17T13:44:46Z</time>
      </trkpt>
      <trkpt lat="43.19557" lon="2.32202">
        <ele>135.2</ele>
        <time>2012-12-17T13:45:09Z</time>
      </trkpt>
      <trkpt lat="43.19602" lon="2.32221">
        <ele>135.2</ele>
        <time>2012-12-17T13:45:20Z</time>
      </trkpt>
      <trkpt lat="43.19617" lon="2.32234">
        <ele>134.72</ele>
        <time>2012-12-17T13:45:24Z</time>
      </trkpt>
      <trkpt lat="43.19634" lon="2.32243">
        <ele>134.72</ele>
        <time>2012-12-17T13:45:28Z</time>
      </trkpt>
      <trkpt lat="43.19698" lon="2.32303">
        <ele>132.8</ele>
        <time>2012-12-17T13:45:43Z</time>
      </trkpt>
      <trkpt lat="43.19764" lon="2.32393">
        <ele>129.92</ele>
        <time>2012-12-17T13:45:56Z</time>
      </trkpt>
      <trkpt lat="43.19818" lon="2.32504">
        <ele>127.03</ele>
        <time>2012-12-17T13:46:08Z</time>
      </trkpt>
      <trkpt lat="43.19845" lon="2.32564">
        <ele>124.15</ele>
        <time>2012-12-17T13:46:14Z</time>
      </trkpt>
      <trkpt lat="43.19871" lon="2.32626">
        <ele>120.78</ele>
        <time>2012-12-17T13:46:20Z</time>
      </trkpt>
      <trkpt lat="43.19944" lon="2.32745">
        <ele>117.42</ele>
        <time>2012-12-17T13:46:32Z</time>
      </trkpt>
      <trkpt lat="43.19971" lon="2.32783">
        <ele>115.5</ele>
        <time>2012-12-17T13:46:36Z</time>
      </trkpt>
      <trkpt lat="43.20063" lon="2.32898">
        <ele>113.57</ele>
        <time>2012-12-17T13:46:50Z</time>
      </trkpt>
      <trkpt lat="43.20132" lon="2.32946">
        <ele>112.13</ele>
        <time>2012-12-17T13:47:01Z</time>
      </trkpt>
      <trkpt lat="43.20155" lon="2.32971">
        <ele>111.65</ele>
        <time>2012-12-17T13:47:12Z</time>
      </trkpt>
      <trkpt lat="43.20168" lon="2.32982">
        <ele>112.13</ele>
        <time>2012-12-17T13:47:22Z</time>
      </trkpt>
      <trkpt lat="43.20164" lon="2.3299">
        <ele>112.13</ele>
        <time>2012-12-17T13:47:26Z</time>
      </trkpt>
      <trkpt lat="43.20149" lon="2.32983">
        <ele>110.69</ele>
        <time>2012-12-17T13:47:41Z</time>
      </trkpt>
      <trkpt lat="43.20149" lon="2.32979">
        <ele>111.17</ele>
        <time>2012-12-17T13:48:46Z</time>
      </trkpt>
    </trkseg>
  </trk>
</gpx>